Data for 10/23/2010

Time Sea-Level Adjusted Pressure Absolute Pressure Temperature Relative Humidity Dew Point Precipitation   
(mb) (inHg) (mb) (inHg) (C) (F) (%) (C) (F) (mm) (in)
00:01 1014 29.94 843 24.89 4.5 40.1 75 0.5 33 4.818 0.19
00:02 1014 29.94 843 24.89 4.7 40.5 75 0.6 33.1 4.982 0.196
00:03 1014 29.94 843 24.89 4.9 40.8 72 0.3 32.6 5.152 0.203
00:04 1014 29.94 843 24.89 5.2 41.3 71 0.4 32.7 5.423 0.214
00:05 1014 29.94 843 24.89 5.4 41.7 70 0.3 32.6 5.638 0.222
00:06 1014 29.94 843 24.89 5.6 42.1 69 0.4 32.7 5.853 0.23
00:07 1014 29.94 843 24.89 5.8 42.4 68 0.4 32.7 6.068 0.239
00:08 1014 29.94 843 24.89 5.9 42.5 68 0.5 32.8 6.13 0.241
00:09 1014 29.94 843 24.89 5.9 42.7 69 0.7 33.3 6.226 0.245
00:10 1014 29.94 843 24.89 5.8 42.4 70 0.8 33.4 6.126 0.241
00:11 1014 29.94 843 24.89 5.7 42.2 70 0.6 33 6.024 0.237
00:12 1014 29.94 843 24.89 5.7 42.2 70 0.6 33.1 6.002 0.236
00:13 1014 29.94 843 24.89 5.7 42.3 68 0.4 32.7 6.099 0.24
00:14 1014 29.94 843 24.89 5.9 42.6 68 0.5 32.9 6.201 0.244
00:15 1014 29.94 843 24.89 5.9 42.6 68 0.5 33 6.258 0.246
00:16 1014 29.94 843 24.89 5.9 42.6 69 0.7 33.2 6.23 0.245
00:17 1014 29.94 843 24.89 5.9 42.6 69 0.6 33.1 6.213 0.245
00:18 1014 29.94 843 24.89 5.8 42.5 69 0.6 33.1 6.213 0.245
00:19 1014 29.94 843 24.89 5.8 42.5 68 0.5 32.8 6.207 0.244
00:20 1014 29.94 843 24.89 5.8 42.4 70 0.7 33.2 6.162 0.243
00:21 1014 29.94 843 24.89 5.7 42.2 70 0.7 33.2 6.071 0.239
00:22 1014 29.94 843 24.89 5.6 42.1 71 0.7 33.3 6.027 0.237
00:23 1014 29.94 843 24.89 5.5 41.9 71 0.6 33.2 5.88 0.231
00:24 1014 29.94 843 24.89 5.4 41.8 71 0.6 33.1 5.846 0.23
00:25 1014 29.94 843 24.89 5.4 41.7 72 0.7 33.3 5.779 0.228
00:26 1014 29.94 843 24.89 5.3 41.5 72 0.7 33.2 5.694 0.224
00:27 1014 29.94 843 24.89 5.2 41.4 72 0.7 33.2 5.626 0.221
00:28 1014 29.94 843 24.89 5.2 41.3 72 0.6 33 5.557 0.219
00:29 1014 29.94 843 24.89 5.2 41.3 72 0.5 33 5.551 0.219
00:30 1014 29.94 843 24.89 5.2 41.4 72 0.5 33 5.625 0.221
00:31 1014 29.94 843 24.89 5.3 41.5 72 0.7 33.2 5.635 0.222
00:32 1014 29.94 843 24.89 5.2 41.4 73 0.7 33.3 5.607 0.221
00:33 1014 29.94 843 24.89 5.1 41.3 73 0.7 33.3 5.568 0.219
00:34 1014 29.94 843 24.89 5.1 41.1 73 0.6 33.1 5.444 0.214
00:35 1014 29.94 843 24.89 5.1 41.1 72 0.5 32.9 5.438 0.214
00:36 1014 29.94 843 24.89 5.1 41.2 72 0.4 32.8 5.517 0.217
00:37 1014 29.94 843 24.89 5.2 41.4 71 0.5 32.8 5.607 0.221
00:38 1014 29.94 843 24.89 5.3 41.6 71 0.4 32.8 5.687 0.224
00:39 1014 29.94 843 24.89 5.4 41.8 70 0.5 32.8 5.783 0.228
00:40 1014 29.94 843 24.89 5.5 41.8 70 0.5 32.9 5.772 0.227
00:41 1014 29.94 843 24.89 5.5 41.8 70 0.5 32.8 5.784 0.228
00:42 1014 29.94 843 24.89 5.4 41.7 70 0.5 32.8 5.767 0.227
00:43 1014 29.94 843 24.89 5.4 41.8 70 0.3 32.6 5.824 0.229
00:44 1014 29.94 843 24.89 5.6 42 68 0.2 32.4 5.92 0.233
00:45 1014 29.94 843 24.89 5.8 42.4 69 0.5 32.9 6.102 0.24
00:46 1014 29.94 843 24.89 5.8 42.5 68 0.4 32.8 6.181 0.243
00:47 1014 29.94 843 24.89 5.9 42.6 68 0.5 33 6.215 0.245
00:48 1014 29.94 843 24.89 5.9 42.6 69 0.6 33 6.21 0.244
00:49 1014 29.94 843 24.89 5.8 42.5 68 0.5 32.8 6.187 0.244
00:50 1014 29.94 843 24.89 5.9 42.6 67 0.3 32.6 6.227 0.245
00:51 1014 29.94 843 24.89 6 42.8 67 0.3 32.5 6.301 0.248
00:52 1014 29.94 843 24.89 6.1 42.9 66 0.2 32.4 6.425 0.253
00:53 1014 29.94 843 24.89 6.2 43.2 65 0.2 32.4 6.555 0.258
00:54 1014 29.94 843 24.89 6.3 43.4 65 0.2 32.3 6.629 0.261
00:55 1014 29.94 843 24.89 6.4 43.6 64 0.2 32.3 6.72 0.265
00:56 1014 29.94 843 24.89 6.5 43.6 64 0.2 32.4 6.759 0.266
00:57 1014 29.94 843 24.89 6.5 43.8 64 0.2 32.4 6.833 0.269
00:58 1014 29.94 843 24.89 6.6 43.8 62 -0.1 31.9 6.901 0.272
00:59 1014 29.94 843 24.89 6.7 44.1 62 -0 32 7.01 0.276
01:00 1014 29.94 843 24.89 6.8 44.2 63 0.4 32.7 7.09 0.279
01:01 1014 29.94 843 24.89 6.6 43.9 64 0.3 32.5 6.992 0.275
01:02 1014 29.94 843 24.89 6.5 43.7 64 0.2 32.4 6.816 0.268
01:03 1014 29.94 843 24.89 6.4 43.5 65 0.2 32.4 6.732 0.265
01:04 1014 29.94 843 24.89 6.2 43.2 65 0.2 32.4 6.579 0.259
01:05 1014 29.94 843 24.89 6 42.9 67 0.4 32.7 6.437 0.253
01:06 1014 29.94 843 24.89 5.9 42.6 68 0.4 32.7 6.256 0.246
01:07 1014 29.94 843 24.89 5.7 42.3 68 0.4 32.7 6.087 0.24
01:08 1014 29.94 843 24.89 5.6 42 69 0.3 32.6 5.951 0.234
01:09 1014 29.94 843 24.89 5.4 41.8 69 0.2 32.3 5.866 0.231
01:10 1014 29.94 843 24.89 5.4 41.7 69 0.2 32.4 5.81 0.229
01:11 1014 29.94 843 24.89 5.4 41.7 69 0.3 32.5 5.753 0.226
01:12 1014 29.94 843 24.89 5.3 41.6 69 0.2 32.3 5.708 0.225
01:13 1014 29.94 843 24.89 5.4 41.6 69 0.1 32.1 5.73 0.226
01:14 1014 29.94 843 24.89 5.4 41.8 69 0.2 32.3 5.815 0.229
01:15 1014 29.94 843 24.89 5.4 41.8 69 0.2 32.3 5.81 0.229
01:16 1014 29.94 843 24.89 5.4 41.7 69 0.2 32.4 5.798 0.228
01:17 1014 29.94 843 24.89 5.3 41.6 70 0.2 32.4 5.696 0.224
01:18 1014 29.94 843 24.89 5.3 41.5 70 0.2 32.4 5.65 0.222
01:19 1014 29.94 843 24.89 5.3 41.5 70 0.3 32.5 5.627 0.222
01:20 1014 29.94 843 24.89 5.2 41.4 71 0.3 32.5 5.599 0.22
01:21 1014 29.94 843 24.89 5.2 41.3 71 0.3 32.5 5.569 0.219
01:22 1014 29.94 843 24.89 5.2 41.3 71 0.4 32.7 5.541 0.218
01:23 1014 29.94 843 24.89 5.1 41.2 71 0.3 32.6 5.513 0.217
01:24 1014 29.94 843 24.89 5.2 41.3 72 0.5 32.8 5.525 0.218
01:25 1014 29.94 843 24.89 5.1 41.2 72 0.5 32.9 5.496 0.216
01:26 1014 29.94 843 24.89 5.1 41.2 72 0.5 33 5.485 0.216
01:27 1014 29.94 843 24.89 5 41.1 72 0.4 32.7 5.444 0.214
01:28 1014 29.94 843 24.89 5.1 41.1 72 0.4 32.8 5.433 0.214
01:29 1014 29.94 843 24.89 5.1 41.1 71 0.3 32.6 5.479 0.216
01:30 1014 29.94 843 24.89 5.2 41.4 70 0.2 32.3 5.57 0.219
01:31 1014 29.94 843 24.89 5.4 41.6 69 0.2 32.3 5.722 0.225
01:32 1014 29.94 843 24.89 5.5 41.9 69 0.2 32.4 5.858 0.231
01:33 1014 29.94 843 24.89 5.6 42.1 68 0.3 32.5 5.955 0.234
01:34 1014 29.94 843 24.89 5.7 42.3 68 0.3 32.6 6.034 0.238
01:35 1014 29.94 843 24.89 5.8 42.4 68 0.4 32.7 6.09 0.24
01:36 1014 29.94 843 24.89 5.8 42.5 68 0.4 32.8 6.123 0.241
01:37 1014 29.94 843 24.89 5.9 42.6 68 0.5 32.9 6.152 0.242
01:38 1014 29.94 843 24.89 5.9 42.6 68 0.4 32.8 6.231 0.245
01:39 1014 29.94 843 24.89 5.9 42.6 68 0.4 32.8 6.305 0.248
01:40 1014 29.94 843 24.89 6 42.7 68 0.6 33 6.345 0.25
01:41 1014 29.94 843 24.89 6 42.8 69 0.7 33.3 6.362 0.25
01:42 1014 29.94 843 24.89 6 42.8 68 0.6 33.1 6.334 0.249
01:43 1014 29.94 843 24.89 6 42.8 67 0.4 32.6 6.396 0.252
01:44 1014 29.94 843 24.89 6.1 43.1 66 0.2 32.4 6.538 0.257
01:45 1014 29.94 843 24.89 6.4 43.4 64 0.2 32.3 6.697 0.264
01:46 1014 29.94 843 24.89 6.5 43.7 64 0.3 32.5 6.844 0.269
01:47 1014 29.94 843 24.89 6.6 43.9 64 0.3 32.5 6.935 0.273
01:48 1014 29.94 843 24.89 6.7 44.1 63 0.3 32.5 6.986 0.275
01:49 1014 29.94 843 24.89 6.8 44.2 63 0.1 32.3 7.08 0.279
01:50 1014 29.94 843 24.89 6.8 44.3 63 0.2 32.4 7.17 0.282
01:51 1014 29.94 843 24.89 6.9 44.3 63 0.3 32.5 7.21 0.284
01:52 1014 29.94 843 24.89 6.9 44.4 63 0.4 32.8 7.2 0.283
01:53 1014 29.94 843 24.89 6.9 44.3 64 0.5 32.8 7.19 0.283
01:54 1014 29.94 843 24.89 6.8 44.3 64 0.5 32.9 7.17 0.282
01:55 1014 29.94 843 24.89 6.7 44.1 64 0.4 32.7 7.12 0.28
01:56 1014 29.94 843 24.89 6.7 44.1 64 0.5 32.8 7.08 0.279
01:57 1014 29.94 843 24.89 6.7 44 65 0.5 32.8 7.08 0.279
01:58 1014 29.94 843 24.89 6.7 44 64 0.4 32.7 7.04 0.277
01:59 1014 29.94 843 24.89 6.6 43.9 64 0.4 32.7 7 0.276
02:00 1014 29.94 843 24.89 6.6 44 65 0.5 32.9 7.01 0.276
02:01 1014 29.94 843 24.89 6.6 43.9 64 0.4 32.7 7.02 0.276
02:02 1014 29.94 843 24.89 6.7 44 64 0.3 32.5 7.04 0.277
02:03 1014 29.94 843 24.89 6.6 44 64 0.3 32.5 7.02 0.276
02:04 1014 29.94 843 24.89 6.7 44 63 0.2 32.4 7.04 0.277
02:05 1014 29.94 843 24.89 6.7 44.1 63 0.2 32.3 7.08 0.279
02:06 1014 29.94 843 24.89 6.8 44.2 63 0.1 32.3 7.1 0.28
02:07 1014 29.94 843 24.89 6.8 44.3 63 0.2 32.4 7.18 0.283
02:08 1014 29.94 843 24.89 6.9 44.3 62 0.1 32.3 7.22 0.284
02:09 1014 29.94 843 24.89 6.9 44.4 62 0.2 32.4 7.27 0.286
02:10 1014 29.94 843 24.89 6.9 44.4 63 0.4 32.7 7.26 0.286
02:11 1014 29.94 843 24.89 6.9 44.4 63 0.2 32.4 7.23 0.285
02:12 1014 29.94 843 24.89 6.9 44.3 63 0.3 32.5 7.21 0.284
02:13 1014 29.94 843 24.89 6.8 44.3 63 0.2 32.4 7.22 0.284
02:14 1014 29.94 843 24.89 6.8 44.3 63 0.3 32.6 7.16 0.282
02:15 1014 29.94 843 24.89 6.8 44.2 63 0.3 32.6 7.13 0.281
02:16 1014 29.94 843 24.89 6.7 44.1 63 0.3 32.5 7.09 0.279
02:17 1014 29.94 843 24.89 6.7 44 64 0.4 32.8 7.06 0.278
02:18 1014 29.94 843 24.89 6.6 43.9 65 0.4 32.8 6.98 0.275
02:19 1014 29.94 843 24.89 6.6 43.8 64 0.4 32.6 6.912 0.272
02:20 1014 29.94 843 24.89 6.5 43.7 64 0.3 32.5 6.878 0.271
02:21 1014 29.94 843 24.89 6.5 43.7 64 0.2 32.4 6.917 0.272
02:22 1014 29.94 843 24.89 6.5 43.8 63 0.1 32.2 6.951 0.274
02:23 1014 29.94 843 24.89 6.6 43.9 63 0.2 32.3 6.94 0.273
02:24 1014 29.94 843 24.89 6.7 44 63 0.2 32.4 6.985 0.275
02:25 1014 29.94 843 24.89 6.7 44 63 0.2 32.4 7.03 0.277
02:26 1014 29.94 843 24.89 6.7 44 64 0.3 32.6 7.03 0.277
02:27 1014 29.94 843 24.89 6.7 44 64 0.3 32.5 7 0.276
02:28 1014 29.94 843 24.89 6.7 44 64 0.3 32.5 7.01 0.276
02:29 1014 29.94 843 24.89 6.7 44 64 0.3 32.6 7 0.276
02:30 1014 29.94 843 24.89 6.6 43.9 64 0.3 32.5 6.934 0.273
02:31 1014 29.94 843 24.89 6.6 43.8 64 0.2 32.4 6.917 0.272
02:32 1014 29.94 843 24.89 6.6 43.8 63 0.1 32.2 6.934 0.273
02:33 1014 29.94 843 24.89 6.6 43.9 63 0.1 32.1 6.923 0.273
02:34 1014 29.94 843 24.89 6.6 43.9 64 0.2 32.4 6.951 0.274
02:35 1014 29.94 843 24.89 6.6 43.8 64 0.2 32.3 6.917 0.272
02:36 1014 29.94 843 24.89 6.5 43.8 63 0.1 32.1 6.894 0.271
02:37 1014 29.94 843 24.89 6.5 43.8 63 -0 32 6.906 0.272
02:38 1014 29.94 843 24.89 6.6 43.9 62 -0.2 31.6 6.979 0.275
02:39 1014 29.94 843 24.89 6.8 44.2 61 -0.3 31.5 7.1 0.28
02:40 1014 29.94 843 24.89 6.8 44.2 61 -0.1 31.8 7.17 0.282
02:41 1014 29.94 843 24.89 6.9 44.4 61 -0 31.9 7.2 0.283
02:42 1014 29.94 843 24.89 6.8 44.3 62 0.1 32.1 7.14 0.281
02:43 1014 29.94 843 24.89 6.8 44.2 62 0.1 32.2 7.13 0.281
02:44 1014 29.94 843 24.89 6.7 44.1 62 0 32 7.05 0.278
02:45 1014 29.94 843 24.89 6.7 44 62 0 32 7.04 0.277
02:46 1014 29.94 843 24.89 6.7 44 62 -0 31.9 7.05 0.278
02:47 1014 29.94 843 24.89 6.7 44.1 64 0.3 32.5 7.01 0.276
02:48 1014 29.94 843 24.89 6.6 43.8 63 0.1 32.1 6.928 0.273
02:49 1014 29.94 843 24.89 6.5 43.7 64 0.2 32.4 6.809 0.268
02:50 1014 29.94 843 24.89 6.4 43.5 64 0 32.1 6.702 0.264
02:51 1014 29.94 843 24.89 6.3 43.4 64 -0 32 6.702 0.264
02:52 1014 29.94 843 24.89 6.5 43.6 61 -0.4 31.3 6.775 0.267
02:53 1014 29.94 843 24.89 6.7 44.1 60 -0.4 31.2 7.04 0.277
02:54 1014 29.94 843 24.89 7 44.6 59 -0.4 31.3 7.3 0.287
02:55 1014 29.94 843 24.89 7.2 44.9 59 -0.3 31.5 7.52 0.296
02:56 1014 29.94 843 24.89 7.3 45.1 59 -0.2 31.6 7.6 0.299
02:57 1014 29.94 843 24.89 7.4 45.3 58 -0.3 31.5 7.68 0.302
02:58 1014 29.94 843 24.89 7.5 45.4 59 0 32 7.78 0.306
02:59 1014 29.94 843 24.89 7.4 45.4 59 -0.1 31.9 7.79 0.307
03:00 1014 29.94 843 24.89 7.4 45.3 59 -0 32 7.74 0.305
03:01 1014 29.94 843 24.89 7.3 45.1 60 0.2 32.3 7.66 0.302
03:02 1014 29.94 843 24.89 7.1 44.8 62 0.3 32.5 7.47 0.294
03:03 1014 29.94 843 24.89 6.9 44.4 63 0.4 32.7 7.3 0.287
03:04 1014 29.94 843 24.89 6.7 44.1 63 0.3 32.5 7.09 0.279
03:05 1014 29.94 843 24.89 6.6 43.8 64 0.3 32.6 6.979 0.275
03:06 1014 29.94 843 24.89 6.5 43.6 65 0.3 32.5 6.86 0.27
03:07 1014 29.94 843 24.89 6.4 43.5 65 0.3 32.5 6.792 0.267
03:08 1014 29.94 843 24.89 6.4 43.5 64 0.1 32.2 6.77 0.267
03:09 1014 29.94 843 24.89 6.3 43.4 64 0.1 32.2 6.724 0.265
03:10 1014 29.94 843 24.89 6.3 43.4 65 0.1 32.2 6.758 0.266
03:11 1014 29.94 843 24.89 6.3 43.3 65 0.1 32.2 6.679 0.263
03:12 1014 29.94 843 24.89 6.3 43.3 65 0.2 32.4 6.685 0.263
03:13 1014 29.94 843 24.89 6.2 43.2 65 0.2 32.3 6.6 0.26
03:14 1014 29.94 843 24.89 6.3 43.3 65 0.1 32.2 6.639 0.261
03:15 1014 29.94 843 24.89 6.3 43.4 64 0.1 32.1 6.702 0.264
03:16 1014 29.94 843 24.89 6.4 43.6 64 0 32.1 6.826 0.269
03:17 1014 29.94 843 24.89 6.5 43.7 64 0.2 32.3 6.9 0.272
03:18 1014 29.94 843 24.89 6.4 43.6 65 0.3 32.5 6.838 0.269
03:19 1014 29.94 843 24.89 6.3 43.4 65 0.3 32.6 6.764 0.266
03:20 1014 29.94 843 24.89 6.2 43.2 66 0.4 32.7 6.628 0.261
03:21 1014 29.94 843 24.89 6.1 43 66 0.4 32.7 6.526 0.257
03:22 1014 29.94 843 24.89 6 42.9 67 0.4 32.6 6.458 0.254
03:23 1014 29.94 843 24.89 6 42.8 67 0.4 32.8 6.425 0.253
03:24 1014 29.94 843 24.89 6 42.7 67 0.4 32.8 6.351 0.25
03:25 1014 29.94 843 24.89 5.9 42.6 68 0.5 32.9 6.294 0.248
03:26 1014 29.94 843 24.89 5.8 42.5 68 0.5 32.8 6.243 0.246
03:27 1014 29.94 843 24.89 5.8 42.4 68 0.4 32.8 6.17 0.243
03:28 1014 29.94 843 24.89 5.7 42.3 69 0.4 32.8 6.13 0.241
03:29 1014 29.94 843 24.89 5.7 42.2 69 0.4 32.7 6.091 0.24
03:30 1014 29.94 843 24.89 5.6 42.1 69 0.4 32.7 6.051 0.238
03:31 1014 29.94 843 24.89 5.6 42.1 69 0.4 32.7 6.012 0.237
03:32 1014 29.94 843 24.89 5.5 42 69 0.4 32.6 5.989 0.236
03:33 1014 29.94 843 24.89 5.5 42 69 0.3 32.5 5.949 0.234
03:34 1014 29.94 843 24.89 5.5 41.9 69 0.3 32.5 5.938 0.234
03:35 1014 29.94 843 24.89 5.6 42 68 0.2 32.3 5.972 0.235
03:36 1014 29.94 843 24.89 5.6 42.2 68 0.2 32.4 6 0.236
03:37 1014 29.94 843 24.89 5.7 42.3 69 0.4 32.8 6.113 0.241
03:38 1014 29.94 843 24.89 5.7 42.2 68 0.2 32.4 6.085 0.24
03:39 1014 29.94 843 24.89 5.7 42.3 66 -0.1 31.8 6.096 0.24
03:40 1014 29.94 843 24.89 5.9 42.7 66 0.1 32.2 6.277 0.247
03:41 1014 29.94 843 24.89 6 42.8 66 0.2 32.4 6.362 0.25
03:42 1014 29.94 843 24.89 6 42.8 65 0 32 6.402 0.252
03:43 1014 29.94 843 24.89 6 42.9 65 0 32.1 6.413 0.252
03:44 1014 29.94 843 24.89 6.1 42.9 65 0.1 32.1 6.441 0.254
03:45 1014 29.94 843 24.89 6.1 43 65 0.1 32.2 6.532 0.257
03:46 1014 29.94 843 24.89 6.1 43 66 0.2 32.4 6.504 0.256
03:47 1014 29.94 843 24.89 6 42.8 66 0.2 32.4 6.396 0.252
03:48 1014 29.94 843 24.89 5.9 42.6 67 0.2 32.4 6.317 0.249
03:49 1014 29.94 843 24.89 5.8 42.5 67 0.3 32.5 6.215 0.245
03:50 1014 29.94 843 24.89 5.7 42.3 67 0.2 32.3 6.091 0.24
03:51 1014 29.94 843 24.89 5.6 42.1 67 0.1 32.1 5.938 0.234
03:52 1014 29.94 843 24.89 5.6 42 67 -0 31.9 5.961 0.235
03:53 1014 29.94 843 24.89 5.6 42.1 67 0 32 5.989 0.236
03:54 1014 29.94 843 24.89 5.7 42.2 67 0 32.1 6.051 0.238
03:55 1014 29.94 843 24.89 5.7 42.3 67 0 32.1 6.062 0.239
03:56 1014 29.94 843 24.89 5.7 42.3 67 0.1 32.2 6.04 0.238
03:57 1014 29.94 843 24.89 5.6 42.2 68 0.1 32.2 5.989 0.236
03:58 1014 29.94 843 24.89 5.6 42 68 0.2 32.3 5.898 0.232
03:59 1014 29.94 843 24.89 5.5 41.9 69 0.2 32.4 5.757 0.227
04:00 1014 29.94 843 24.89 5.4 41.7 69 0.1 32.2 5.729 0.226
04:01 1014 29.94 843 24.89 5.3 41.6 69 0.2 32.3 5.672 0.223
04:02 1014 29.94 843 24.89 5.3 41.5 70 0.2 32.3 5.604 0.221
04:03 1014 29.94 843 24.89 5.2 41.4 70 0.2 32.3 5.576 0.22
04:04 1014 29.94 843 24.89 5.2 41.3 70 0.2 32.3 5.519 0.217
04:05 1014 29.94 843 24.89 5 41.1 71 0.1 32.2 5.367 0.211
04:06 1014 29.94 843 24.89 5 41 70 0.1 32.1 5.367 0.211
04:07 1014 29.94 843 24.89 5 41.1 70 0.1 32.1 5.395 0.212
04:08 1014 29.94 843 24.89 5.1 41.2 69 -0 32 5.446 0.214
04:09 1014 29.94 843 24.89 5.2 41.4 69 0 32 5.57 0.219
04:10 1014 29.94 843 24.89 5.3 41.5 69 0.1 32.1 5.565 0.219
04:11 1014 29.94 843 24.89 5.1 41.2 70 0.1 32.1 5.468 0.215
04:12 1014 29.94 843 24.89 5 41.1 70 -0 31.9 5.463 0.215
04:13 1014 29.94 843 24.89 5.1 41.2 69 -0.1 31.8 5.485 0.216
04:14 1014 29.94 843 24.89 4.9 40.8 71 0 32.1 5.327 0.21
04:15 1014 29.94 843 24.89 4.7 40.5 70 -0.2 31.7 5.191 0.204
04:16 1013 29.91 843 24.89 4.4 39.9 72 -0.2 31.7 4.914 0.193
04:17 1013 29.91 843 24.89 4 39.2 73 -0.3 31.4 4.603 0.181
04:18 1013 29.91 843 24.89 3.7 38.6 75 -0.3 31.4 4.229 0.166
04:19 1013 29.91 843 24.89 3.4 38.1 76 -0.4 31.3 4.038 0.159
04:20 1013 29.91 843 24.89 3.5 38.4 75 -0.4 31.3 4.084 0.161
04:21 1013 29.91 843 24.89 3.7 38.7 75 -0.4 31.3 4.197 0.165
04:22 1013 29.91 843 24.89 3.9 39.1 74 -0.3 31.4 4.344 0.171
04:23 1013 29.91 843 24.89 4.2 39.5 72 -0.4 31.2 4.485 0.177
04:24 1013 29.91 843 24.89 4.2 39.6 72 -0.4 31.3 4.514 0.178
04:25 1013 29.91 842 24.86 4.2 39.5 72 -0.4 31.3 4.503 0.177
04:26 1013 29.91 842 24.86 4.2 39.5 72 -0.4 31.3 4.509 0.178
04:27 1013 29.91 842 24.86 4.2 39.6 72 -0.4 31.4 4.532 0.178
04:28 1013 29.91 842 24.86 4.2 39.5 72 -0.4 31.2 4.498 0.177
04:29 1013 29.91 842 24.86 4.1 39.4 72 -0.5 31.2 4.431 0.174
04:30 1013 29.91 843 24.89 4.1 39.3 73 -0.4 31.3 4.386 0.173
04:31 1013 29.91 842 24.86 3.9 39 74 -0.4 31.4 4.279 0.168
04:32 1013 29.91 842 24.86 3.7 38.7 75 -0.3 31.5 4.098 0.161
04:33 1013 29.91 842 24.86 3.6 38.5 75 -0.3 31.4 3.985 0.157
04:34 1013 29.91 842 24.86 3.5 38.3 76 -0.3 31.4 3.913 0.154
04:35 1013 29.91 843 24.89 3.6 38.4 76 -0.3 31.5 3.97 0.156
04:36 1013 29.91 842 24.86 3.6 38.4 76 -0.2 31.6 3.987 0.157
04:37 1013 29.91 842 24.86 3.6 38.4 76 -0.2 31.6 3.976 0.157
04:38 1013 29.91 843 24.89 3.5 38.4 77 -0.1 31.8 3.902 0.154
04:39 1013 29.91 843 24.89 3.5 38.2 77 -0.1 31.8 3.891 0.153
04:40 1013 29.91 842 24.86 3.5 38.2 78 -0.1 31.8 3.851 0.152
04:41 1013 29.91 842 24.86 3.4 38.2 78 -0.1 31.8 3.835 0.151
04:42 1013 29.91 842 24.86 3.4 38.1 78 -0.1 31.8 3.829 0.151
04:43 1013 29.91 843 24.89 3.4 38.2 78 -0.1 31.9 3.859 0.152
04:44 1013 29.91 843 24.89 3.5 38.2 78 -0 31.9 3.864 0.152
04:45 1013 29.91 843 24.89 3.4 38.2 78 -0.1 31.9 3.853 0.152
04:46 1013 29.91 843 24.89 3.5 38.2 78 0 32 3.86 0.152
04:47 1013 29.91 843 24.89 3.4 38.2 78 -0 32 3.843 0.151
04:48 1013 29.91 843 24.89 3.4 38.1 78 -0 31.9 3.787 0.149
04:49 1013 29.91 843 24.89 3.4 38.1 78 -0.1 31.9 3.771 0.148
04:50 1013 29.91 843 24.89 3.4 38 78 -0.1 31.8 3.754 0.148
04:51 1013 29.91 843 24.89 3.3 38 78 -0.2 31.7 3.714 0.146
04:52 1013 29.91 843 24.89 3.3 38 78 -0.2 31.7 3.692 0.145
04:53 1013 29.91 843 24.89 3.3 38 78 -0.2 31.7 3.72 0.146
04:54 1013 29.91 843 24.89 3.4 38 78 -0.2 31.7 3.726 0.147
04:55 1013 29.91 843 24.89 3.3 37.9 78 -0.2 31.6 3.676 0.145
04:56 1013 29.91 843 24.89 3.3 37.9 78 -0.2 31.6 3.653 0.144
04:57 1013 29.91 843 24.89 3.2 37.8 78 -0.3 31.5 3.682 0.145
04:58 1013 29.91 843 24.89 3.3 37.9 77 -0.3 31.4 3.716 0.146
04:59 1013 29.91 843 24.89 3.3 37.9 77 -0.4 31.3 3.676 0.145
05:00 1013 29.91 843 24.89 3 37.3 79 -0.3 31.4 3.444 0.136
05:01 1013 29.91 843 24.89 2.8 37.1 79 -0.4 31.3 3.224 0.127
05:02 1013 29.91 843 24.89 2.6 36.7 80 -0.4 31.3 3.083 0.121
05:03 1013 29.91 843 24.89 2.5 36.6 81 -0.5 31.2 2.964 0.117
05:04 1013 29.91 843 24.89 2.4 36.3 81 -0.6 30.9 2.828 0.111
05:05 1013 29.91 843 24.89 2.2 35.9 82 -0.6 30.9 2.653 0.104
05:06 1013 29.91 843 24.89 2 35.5 83 -0.6 30.9 2.461 0.097
05:07 1013 29.91 843 24.89 1.9 35.4 84 -0.6 30.9 2.353 0.093
05:08 1013 29.91 843 24.89 1.8 35.3 84 -0.6 30.9 2.263 0.089
05:09 1013 29.91 843 24.89 1.7 35.1 84 -0.7 30.8 2.178 0.086
05:10 1013 29.91 843 24.89 1.7 35 84 -0.7 30.7 2.059 0.081
05:11 1013 29.91 843 24.89 1.5 34.7 85 -0.7 30.8 1.98 0.078
05:12 1013 29.91 843 24.89 1.5 34.8 85 -0.7 30.7 1.952 0.077
05:13 1013 29.91 843 24.89 1.5 34.7 85 -0.7 30.7 1.918 0.076
05:14 1013 29.91 843 24.89 1.5 34.7 85 -0.7 30.7 1.895 0.075
05:15 1013 29.91 843 24.89 1.5 34.6 85 -0.7 30.7 1.85 0.073
05:16 1013 29.91 843 24.89 1.4 34.5 86 -0.7 30.7 1.816 0.071
05:17 1013 29.91 843 24.89 1.5 34.8 86 -0.6 30.9 1.912 0.075
05:18 1013 29.91 843 24.89 1.8 35.2 84 -0.7 30.7 2.105 0.083
05:19 1013 29.91 843 24.89 1.7 35.1 85 -0.6 30.9 2.178 0.086
05:20 1013 29.91 843 24.89 1.9 35.3 84 -0.5 31.1 2.275 0.09
05:21 1013 29.91 843 24.89 2.1 35.8 83 -0.4 31.2 2.45 0.096
05:22 1013 29.91 843 24.89 2.4 36.3 82 -0.4 31.2 2.693 0.106
05:23 1013 29.91 843 24.89 2.6 36.6 81 -0.4 31.2 2.909 0.115
05:24 1013 29.91 843 24.89 2.5 36.6 81 -0.4 31.2 2.903 0.114
05:25 1013 29.91 843 24.89 2.6 36.7 80 -0.4 31.2 2.954 0.116
05:26 1013 29.91 843 24.89 2.5 36.6 81 -0.4 31.2 2.931 0.115
05:27 1013 29.91 843 24.89 2.7 36.8 80 -0.4 31.3 3.044 0.12
05:28 1013 29.91 843 24.89 2.8 37 80 -0.4 31.4 3.175 0.125
05:29 1013 29.91 843 24.89 2.8 37.1 79 -0.4 31.3 3.203 0.126
05:30 1013 29.91 843 24.89 2.8 37 80 -0.4 31.3 3.135 0.123
05:31 1014 29.94 843 24.89 2.8 37 80 -0.4 31.3 3.141 0.124
05:32 1014 29.94 843 24.89 2.8 37.1 80 -0.3 31.5 3.192 0.126
05:33 1014 29.94 843 24.89 2.8 37 80 -0.3 31.5 3.158 0.124
05:34 1014 29.94 843 24.89 2.8 37.1 80 -0.3 31.4 3.214 0.127
05:35 1014 29.94 843 24.89 2.9 37.2 79 -0.3 31.4 3.305 0.13
05:36 1014 29.94 843 24.89 2.8 37.1 80 -0.4 31.3 3.163 0.125
05:37 1013 29.91 843 24.89 2.6 36.7 81 -0.4 31.3 2.982 0.117
05:38 1014 29.94 843 24.89 2.4 36.3 82 -0.4 31.4 2.801 0.11
05:39 1014 29.94 843 24.89 2.3 36.2 83 -0.3 31.4 2.745 0.108
05:40 1014 29.94 843 24.89 2.4 36.3 83 -0.3 31.5 2.779 0.109
05:41 1014 29.94 843 24.89 2.5 36.4 82 -0.3 31.5 2.847 0.112
05:42 1014 29.94 843 24.89 2.6 36.6 82 -0.2 31.7 2.937 0.116
05:43 1014 29.94 843 24.89 2.7 36.8 82 -0.1 31.7 3.062 0.121
05:44 1014 29.94 843 24.89 2.9 37.2 81 -0.1 31.8 3.226 0.127
05:45 1013 29.91 843 24.89 3.1 37.6 79 -0.2 31.7 3.424 0.135
05:46 1013 29.91 843 24.89 3.3 38 78 -0.2 31.7 3.667 0.144
05:47 1014 29.94 843 24.89 3.5 38.3 77 -0.2 31.7 3.82 0.15
05:48 1014 29.94 843 24.89 3.6 38.4 76 -0.2 31.7 3.899 0.154
05:49 1014 29.94 843 24.89 3.6 38.5 77 -0 32 3.956 0.156
05:50 1014 29.94 843 24.89 3.5 38.3 78 -0 32 3.865 0.152
05:51 1014 29.94 843 24.89 3.5 38.2 78 0 32.1 3.865 0.152
05:52 1014 29.94 843 24.89 3.4 38.1 79 0.1 32.1 3.82 0.15
05:53 1014 29.94 843 24.89 3.4 38.2 79 0.1 32.2 3.78 0.149
05:54 1014 29.94 843 24.89 3.4 38.1 78 -0 31.9 3.82 0.15
05:55 1014 29.94 843 24.89 3.4 38.2 78 0 32 3.803 0.15
05:56 1014 29.94 843 24.89 3.4 38.1 78 -0.1 31.8 3.803 0.15
05:57 1014 29.94 843 24.89 3.6 38.4 77 -0.1 31.8 3.905 0.154
05:58 1014 29.94 843 24.89 3.8 38.8 75 -0.2 31.7 4.109 0.162
05:59 1014 29.94 843 24.89 3.9 39.1 75 -0.1 31.7 4.318 0.17
06:00 1014 29.94 843 24.89 4 39.2 75 0.1 32.1 4.369 0.172
06:01 1014 29.94 843 24.89 3.9 39 76 0.1 32.2 4.307 0.17
06:02 1014 29.94 843 24.89 3.8 38.8 77 0.1 32.2 4.177 0.164
06:03 1014 29.94 843 24.89 3.7 38.7 76 -0.1 31.8 4.109 0.162
06:04 1014 29.94 843 24.89 3.9 39 74 -0.3 31.5 4.21 0.166
06:05 1014 29.94 843 24.89 4.2 39.5 73 -0.2 31.6 4.493 0.177
06:06 1014 29.94 843 24.89 4.4 39.9 72 -0.2 31.7 4.72 0.186
06:07 1014 29.94 843 24.89 4.6 40.3 71 -0.2 31.7 4.878 0.192
06:08 1014 29.94 843 24.89 4.7 40.4 71 -0.2 31.6 5.02 0.198
06:09 1014 29.94 843 24.89 4.8 40.6 70 -0.3 31.5 5.133 0.202
06:10 1014 29.94 843 24.89 4.9 40.8 70 -0 32 5.207 0.205
06:11 1014 29.94 843 24.89 4.8 40.6 72 0.2 32.4 5.122 0.202
06:12 1014 29.94 843 24.89 4.5 40.2 73 0.2 32.4 4.958 0.195
06:13 1014 29.94 843 24.89 4.5 40.1 72 -0.2 31.7 4.861 0.191
06:14 1014 29.94 843 24.89 4.7 40.4 72 0.1 32.2 4.929 0.194
06:15 1014 29.94 843 24.89 4.7 40.5 69 -0.4 31.3 4.986 0.196
06:16 1014 29.94 843 24.89 5 41.1 66 -0.8 30.5 5.195 0.205
06:17 1014 29.94 843 24.89 5.5 41.9 65 -0.5 31.1 5.637 0.222
06:18 1014 29.94 843 24.89 5.5 42 68 0.1 32.2 5.767 0.227
06:19 1014 29.94 843 24.89 5.3 41.6 65 -0.7 30.8 5.665 0.223
06:20 1014 29.94 843 24.89 5.7 42.2 65 -0.4 31.3 5.874 0.231
06:21 1014 29.94 843 24.89 5.7 42.3 68 0.3 32.6 5.982 0.236
06:22 1014 29.94 843 24.89 5.4 41.8 66 -0.3 31.5 5.812 0.229
06:23 1014 29.94 843 24.89 5.3 41.6 69 0.1 32.1 5.705 0.225
06:24 1014 29.94 843 24.89 5.2 41.4 67 -0.3 31.5 5.586 0.22
06:25 1014 29.94 843 24.89 5.3 41.5 70 0.3 32.5 5.62 0.221
06:26 1014 29.94 843 24.89 5.1 41.2 71 0.3 32.6 5.523 0.217
06:27 1014 29.94 843 24.89 4.7 40.5 73 0.3 32.5 5.207 0.205
06:28 1014 29.94 843 24.89 4.5 40.1 74 0.2 32.4 4.918 0.194
06:29 1014 29.94 843 24.89 4.4 39.8 74 0.2 32.4 4.754 0.187
06:30 1014 29.94 843 24.89 4.3 39.7 75 0.3 32.5 4.652 0.183
06:31 1014 29.94 843 24.89 4.1 39.4 75 0.2 32.3 4.51 0.178
06:32 1014 29.94 843 24.89 4.1 39.3 76 0.2 32.4 4.465 0.176
06:33 1014 29.94 843 24.89 4 39.2 76 0.2 32.3 4.324 0.17
06:34 1014 29.94 843 24.89 4 39.1 77 0.2 32.4 4.329 0.17
06:35 1014 29.94 843 24.89 3.9 39 77 0.3 32.5 4.273 0.168
06:36 1014 29.94 843 24.89 3.7 38.7 78 0.3 32.5 4.188 0.165
06:37 1014 29.94 843 24.89 3.7 38.6 78 0.2 32.4 4.109 0.162
06:38 1014 29.94 843 24.89 3.7 38.7 78 0.2 32.4 4.097 0.161
06:39 1014 29.94 843 24.89 3.7 38.7 79 0.3 32.6 4.08 0.161
06:40 1014 29.94 843 24.89 3.6 38.4 79 0.3 32.6 3.978 0.157
06:41 1014 29.94 843 24.89 3.4 38.2 80 0.3 32.6 3.843 0.151
06:42 1014 29.94 843 24.89 3.4 38 80 0.3 32.5 3.746 0.147
06:43 1014 29.94 843 24.89 3.2 37.8 81 0.3 32.6 3.662 0.144
06:44 1014 29.94 843 24.89 3.2 37.7 82 0.3 32.6 3.582 0.141
06:45 1014 29.94 843 24.89 3 37.4 83 0.3 32.6 3.43 0.135
06:46 1014 29.94 843 24.89 2.8 37.1 84 0.3 32.6 3.294 0.13
06:47 1014 29.94 843 24.89 2.6 36.7 85 0.3 32.5 3.124 0.123
06:48 1014 29.94 843 24.89 2.5 36.5 85 0.3 32.5 2.971 0.117
06:49 1014 29.94 843 24.89 2.4 36.3 86 0.3 32.5 2.909 0.115
06:50 1014 29.94 843 24.89 2.3 36.1 86 0.3 32.5 2.762 0.109
06:51 1014 29.94 843 24.89 2.2 36 87 0.2 32.4 2.711 0.107
06:52 1014 29.94 843 24.89 2.1 35.9 87 0.2 32.4 2.626 0.103
06:53 1014 29.94 843 24.89 2.1 35.7 87 0.2 32.3 2.598 0.102
06:54 1014 29.94 843 24.89 2 35.6 87 0.1 32.2 2.53 0.1
06:55 1014 29.94 843 24.89 2 35.6 87 0.1 32.2 2.445 0.096
06:56 1014 29.94 843 24.89 1.9 35.5 88 0.1 32.1 2.405 0.095
06:57 1014 29.94 843 24.89 2 35.6 87 0 32.1 2.445 0.096
06:58 1014 29.94 843 24.89 2.1 35.9 86 0.1 32.1 2.507 0.099
06:59 1014 29.94 843 24.89 2.2 36 85 0 32 2.575 0.101
07:00 1014 29.94 843 24.89 2.3 36.1 85 -0 31.9 2.626 0.103
07:01 1014 29.94 843 24.89 2.3 36.1 85 -0.1 31.9 2.637 0.104
07:02 1014 29.94 843 24.89 2.3 36.1 84 -0.1 31.8 2.609 0.103
07:03 1014 29.94 843 24.89 2.2 36 84 -0.1 31.7 2.598 0.102
07:04 1014 29.94 843 24.89 2.2 35.9 85 -0.1 31.7 2.535 0.1
07:05 1014 29.94 843 24.89 2.1 35.8 85 -0.2 31.6 2.507 0.099
07:06 1014 29.94 843 24.89 2 35.7 85 -0.2 31.6 2.462 0.097
07:07 1014 29.94 843 24.89 2 35.7 85 -0.2 31.7 2.428 0.096
07:08 1014 29.94 843 24.89 2.1 35.8 86 -0.1 31.9 2.473 0.097
07:09 1014 29.94 843 24.89 2.1 35.8 86 -0 32 2.513 0.099
07:10 1014 29.94 843 24.89 2.1 35.8 86 -0 32 2.507 0.099
07:11 1014 29.94 843 24.89 2.1 35.8 86 0.1 32.1 2.513 0.099
07:12 1014 29.94 843 24.89 2.1 35.8 86 0.1 32.1 2.535 0.1
07:13 1014 29.94 843 24.89 2.1 35.9 86 0 32.1 2.507 0.099
07:14 1014 29.94 843 24.89 2.1 35.8 86 -0 31.9 2.507 0.099
07:15 1014 29.94 843 24.89 2.2 35.9 85 -0 32 2.53 0.1
07:16 1014 29.94 843 24.89 2.2 36 85 0 32 2.615 0.103
07:17 1014 29.94 843 24.89 2.3 36.1 85 -0 32 2.682 0.106
07:18 1014 29.94 843 24.89 2.3 36.1 85 -0 32 2.66 0.105
07:19 1014 29.94 843 24.89 2.3 36.1 84 -0.1 31.8 2.666 0.105
07:20 1014 29.94 843 24.89 2.3 36.1 84 -0.1 31.8 2.66 0.105
07:21 1014 29.94 843 24.89 2.3 36.1 84 -0.1 31.8 2.609 0.103
07:22 1014 29.94 843 24.89 2.3 36.1 84 -0.1 31.7 2.615 0.103
07:23 1014 29.94 843 24.89 2.3 36.1 84 -0.1 31.8 2.626 0.103
07:24 1014 29.94 843 24.89 2.2 36 85 -0.1 31.8 2.586 0.102
07:25 1014 29.94 843 24.89 2.2 35.9 85 -0.1 31.7 2.552 0.1
07:26 1014 29.94 843 24.89 2.1 35.7 85 -0.2 31.7 2.507 0.099
07:27 1014 29.94 843 24.89 2 35.7 85 -0.2 31.7 2.433 0.096
07:28 1014 29.94 843 24.89 2 35.6 85 -0.2 31.6 2.405 0.095
07:29 1014 29.94 843 24.89 2.1 35.7 85 -0.2 31.6 2.462 0.097
07:30 1014 29.94 843 24.89 2.2 35.9 84 -0.3 31.5 2.497 0.098
07:31 1014 29.94 843 24.89 2.2 36 84 -0.3 31.5 2.542 0.1
07:32 1014 29.94 843 24.89 2.3 36.1 83 -0.3 31.5 2.582 0.102
07:33 1014 29.94 843 24.89 2.4 36.3 83 -0.2 31.6 2.645 0.104
07:34 1014 29.94 843 24.89 2.4 36.3 83 -0.2 31.6 2.725 0.107
07:35 1014 29.94 843 24.89 2.5 36.4 82 -0.3 31.4 2.753 0.108
07:36 1014 29.94 843 24.89 2.4 36.3 82 -0.4 31.3 2.73 0.107
07:37 1014 29.94 843 24.89 2.3 36.1 82 -0.4 31.2 2.651 0.104
07:38 1014 29.94 843 24.89 2.2 36 82 -0.5 31.2 2.588 0.102
07:39 1014 29.94 843 24.89 2.1 35.8 83 -0.5 31.1 2.493 0.098
07:40 1014 29.94 843 24.89 2 35.6 83 -0.6 30.9 2.408 0.095
07:41 1014 29.94 843 24.89 1.9 35.3 84 -0.6 30.9 2.238 0.088
07:42 1014 29.94 843 24.89 1.8 35.2 85 -0.6 31 2.143 0.084
07:43 1014 29.94 843 24.89 1.7 35.1 84 -0.6 30.9 2.103 0.083
07:44 1014 29.94 843 24.89 1.7 35 85 -0.6 30.9 2.058 0.081
07:45 1014 29.94 843 24.89 1.7 35 85 -0.6 30.9 2.07 0.081
07:46 1014 29.94 843 24.89 1.7 35 85 -0.6 30.9 2.031 0.08
07:47 1014 29.94 843 24.89 1.6 34.9 85 -0.7 30.7 2.008 0.079
07:48 1014 29.94 843 24.89 1.6 34.8 85 -0.7 30.7 1.957 0.077
07:49 1014 29.94 843 24.89 1.5 34.8 85 -0.7 30.7 1.895 0.075
07:50 1014 29.94 843 24.89 1.4 34.6 85 -0.8 30.5 1.822 0.072
07:51 1014 29.94 843 24.89 1.3 34.4 85 -0.9 30.4 1.72 0.068
07:52 1014 29.94 843 24.89 1.2 34.2 86 -0.9 30.4 1.573 0.062
07:53 1014 29.94 843 24.89 1.1 34 86 -0.9 30.3 1.545 0.061
07:54 1014 29.94 843 24.89 1 33.8 86 -1 30.2 1.409 0.055
07:55 1014 29.94 843 24.89 1 33.8 87 -1 30.2 1.364 0.054
07:56 1014 29.94 843 24.89 0.9 33.6 87 -1 30.2 1.279 0.05
07:57 1014 29.94 843 24.89 0.8 33.5 87 -1.1 30 1.234 0.049
07:58 1014 29.94 843 24.89 0.8 33.4 87 -1.1 30 1.189 0.047
07:59 1014 29.94 843 24.89 0.8 33.4 88 -1 30.1 1.149 0.045
08:00 1014 29.94 843 24.89 0.7 33.3 88 -1 30.2 1.121 0.044
08:01 1014 29.94 843 24.89 0.8 33.4 88 -0.9 30.3 1.115 0.044
08:02 1014 29.94 843 24.89 0.8 33.4 88 -1 30.3 1.139 0.045
08:03 1014 29.94 843 24.89 0.8 33.5 88 -1 30.3 1.157 0.046
08:04 1014 29.94 843 24.89 0.8 33.5 87 -1 30.2 1.213 0.048
08:05 1014 29.94 843 24.89 0.8 33.5 87 -1.1 30.1 1.191 0.047
08:06 1014 29.94 843 24.89 0.8 33.4 87 -1.1 30.1 1.169 0.046
08:07 1014 29.94 843 24.89 0.7 33.3 88 -1.1 30 1.113 0.044
08:08 1014 29.94 843 24.89 0.7 33.3 88 -1.1 30 1.061 0.042
08:09 1014 29.94 843 24.89 0.6 33.1 88 -1.2 29.8 1.022 0.04
08:10 1014 29.94 843 24.89 0.5 33 88 -1.2 29.8 .942 0.037
08:11 1014 29.94 843 24.89 0.5 32.9 88 -1.2 29.9 .881 0.035
08:12 1014 29.94 843 24.89 0.5 32.8 89 -1.2 29.8 .87 0.034
08:13 1014 29.94 843 24.89 0.4 32.7 89 -1.2 29.8 .796 0.031
08:14 1014 29.94 843 24.89 0.3 32.6 89 -1.2 29.8 .74 0.029
08:15 1014 29.94 843 24.89 0.2 32.4 89 -1.3 29.7 .639 0.025
08:16 1014 29.94 843 24.89 0.2 32.4 90 -1.2 29.8 .616 0.024
08:17 1014 29.94 843 24.89 0.2 32.4 90 -1.2 29.8 .582 0.023
08:18 1014 29.94 843 24.89 0.2 32.4 90 -1.2 29.9 .628 0.025
08:19 1014 29.94 843 24.89 0.3 32.5 90 -1.2 29.9 .628 0.025
08:20 1014 29.94 843 24.89 0.3 32.6 90 -1.2 29.9 .674 0.027
08:21 1014 29.94 843 24.89 0.3 32.6 90 -1.1 29.9 .634 0.025
08:22 1014 29.94 843 24.89 0.4 32.7 90 -1.1 30 .674 0.027
08:23 1014 29.94 843 24.89 0.4 32.7 90 -1.1 30.1 .702 0.028
08:24 1014 29.94 843 24.89 0.5 32.9 89 -1.1 30 .748 0.029
08:25 1014 29.94 843 24.89 0.5 32.9 89 -1.2 29.9 .776 0.031
08:26 1014 29.94 843 24.89 0.6 33.1 89 -1 30.2 .856 0.034
08:27 1014 29.94 843 24.89 0.8 33.4 89 -0.8 30.5 1.026 0.04
08:28 1014 29.94 843 24.89 1 33.8 88 -0.8 30.6 1.161 0.046
08:29 1014 29.94 843 24.89 1.3 34.4 86 -0.7 30.7 1.382 0.054
08:30 1014 29.94 843 24.89 1.7 35.1 85 -0.6 30.9 1.722 0.068
08:31 1014 29.94 843 24.89 1.9 35.4 83 -0.8 30.6 1.971 0.078
08:32 1014 29.94 843 24.89 2 35.6 82 -0.8 30.6 2.085 0.082
08:33 1014 29.94 843 24.89 1.8 35.3 82 -0.9 30.3 2.011 0.079
08:34 1014 29.94 843 24.89 1.6 34.9 83 -1 30.2 1.785 0.07
08:35 1014 29.94 843 24.89 1.3 34.3 85 -1 30.2 1.604 0.063
08:36 1014 29.94 843 24.89 1.2 34.2 85 -1 30.2 1.519 0.06
08:37 1014 29.94 843 24.89 1.1 34 86 -1 30.2 1.468 0.058
08:38 1014 29.94 843 24.89 1 33.8 86 -1 30.1 1.372 0.054
08:39 1014 29.94 843 24.89 0.9 33.7 86 -1.1 30 1.315 0.052
08:40 1014 29.94 843 24.89 0.9 33.6 87 -1 30.2 1.253 0.049
08:41 1014 29.94 843 24.89 1 33.7 87 -1 30.3 1.287 0.051
08:42 1014 29.94 843 24.89 1.1 34 87 -0.8 30.5 1.394 0.055
08:43 1014 29.94 843 24.89 1.3 34.3 86 -0.8 30.5 1.604 0.063
08:44 1014 29.94 843 24.89 1.5 34.7 85 -0.8 30.6 1.768 0.07
08:45 1014 29.94 843 24.89 1.7 35.1 84 -0.7 30.7 1.966 0.077
08:46 1014 29.94 843 24.89 1.9 35.3 83 -0.7 30.8 2.119 0.083
08:47 1014 29.94 843 24.89 2 35.6 83 -0.6 30.9 2.255 0.089
08:48 1014 29.94 843 24.89 2.1 35.8 82 -0.5 31 2.419 0.095
08:49 1014 29.94 843 24.89 2.3 36.2 81 -0.6 31 2.6 0.102
08:50 1014 29.94 843 24.89 2.4 36.3 81 -0.5 31.1 2.657 0.105
08:51 1014 29.94 843 24.89 2.3 36.2 82 -0.5 31.2 2.657 0.105
08:52 1014 29.94 843 24.89 2.3 36.2 82 -0.4 31.3 2.68 0.106
08:53 1014 29.94 843 24.89 2.3 36.2 83 -0.3 31.4 2.668 0.105
08:54 1014 29.94 843 24.89 2.3 36.1 84 -0.2 31.6 2.674 0.105
08:55 1014 29.94 843 24.89 2.3 36.1 84 -0.1 31.8 2.669 0.105
08:56 1014 29.94 843 24.89 2.2 36 84 -0.1 31.7 2.657 0.105
08:57 1014 29.94 843 24.89 2.3 36.1 84 -0.1 31.8 2.652 0.104
08:58 1014 29.94 843 24.89 2.3 36.1 84 -0.1 31.8 2.646 0.104
08:59 1014 29.94 843 24.89 2.3 36.2 84 -0.1 31.8 2.68 0.106
09:00 1014 29.94 843 24.89 2.4 36.3 84 -0.1 31.8 2.736 0.108
09:01 1014 29.94 843 24.89 2.5 36.4 83 -0.1 31.9 2.759 0.109
09:02 1014 29.94 843 24.89 2.5 36.5 83 -0.1 31.9 2.821 0.111
09:03 1014 29.94 843 24.89 2.6 36.6 82 -0.1 31.8 2.838 0.112
09:04 1014 29.94 843 24.89 2.6 36.7 82 -0.1 31.7 2.878 0.113
09:05 1014 29.94 843 24.89 2.7 36.8 81 -0.2 31.6 2.986 0.118
09:06 1014 29.94 843 24.89 2.8 37 81 -0.2 31.6 3.076 0.121
09:07 1014 29.94 843 24.89 3 37.3 80 -0.2 31.7 3.201 0.126
09:08 1014 29.94 843 24.89 3.1 37.6 79 -0.2 31.6 3.371 0.133
09:09 1014 29.94 843 24.89 3.2 37.8 78 -0.2 31.6 3.484 0.137
09:10 1014 29.94 843 24.89 3.3 38 78 -0.2 31.7 3.591 0.141
09:11 1014 29.94 843 24.89 3.4 38.2 78 -0.1 31.8 3.688 0.145
09:12 1014 29.94 843 24.89 3.4 38.2 77 -0.2 31.7 3.767 0.148
09:13 1014 29.94 843 24.89 3.6 38.4 77 -0.2 31.7 3.863 0.152
09:14 1014 29.94 843 24.89 3.6 38.5 76 -0.1 31.8 3.942 0.155
09:15 1014 29.94 843 24.89 3.7 38.7 76 -0 31.9 4.005 0.158
09:16 1014 29.94 843 24.89 3.8 38.8 76 -0 31.9 4.056 0.16
09:17 1014 29.94 843 24.89 3.8 38.9 76 -0 32 4.095 0.161
09:18 1014 29.94 843 24.89 3.8 38.9 76 0 32 4.124 0.162
09:19 1014 29.94 843 24.89 3.8 38.9 76 -0.1 31.8 4.18 0.165
09:20 1014 29.94 843 24.89 3.9 39 75 -0 31.9 4.231 0.167
09:21 1014 29.94 843 24.89 3.9 39 76 0 32 4.299 0.169
09:22 1014 29.94 843 24.89 3.9 39 76 0.2 32.3 4.265 0.168
09:23 1014 29.94 843 24.89 3.8 38.9 77 0.1 32.2 4.231 0.167
09:24 1014 29.94 843 24.89 3.9 38.9 77 0.2 32.4 4.18 0.165
09:25 1014 29.94 843 24.89 3.9 39 77 0.3 32.6 4.231 0.167
09:26 1014 29.94 843 24.89 4.1 39.3 78 0.5 32.9 4.339 0.171
09:27 1014 29.94 843 24.89 4.3 39.8 77 0.6 33 4.526 0.178
09:28 1014 29.94 843 24.89 4.6 40.3 76 0.8 33.5 4.775 0.188
09:29 1014 29.94 843 24.89 4.9 40.8 76 1 33.7 4.984 0.196
09:30 1014 29.94 843 24.89 5.1 41.2 76 1.2 34.1 5.239 0.206
09:31 1014 29.94 843 24.89 5.4 41.7 74 1.2 34.1 5.522 0.217
09:32 1014 29.94 843 24.89 5.7 42.2 73 1.3 34.4 5.811 0.229
09:33 1014 29.94 843 24.89 6 42.7 73 1.4 34.6 6.048 0.238
09:34 1014 29.94 843 24.89 6.2 43.1 72 1.5 34.8 6.309 0.248
09:35 1014 29.94 843 24.89 6.4 43.5 70 1.3 34.4 6.524 0.257
09:36 1014 29.94 843 24.89 6.6 43.9 67 1 33.9 6.739 0.265
09:37 1014 29.94 843 24.89 6.8 44.3 69 1.5 34.7 6.932 0.273
09:38 1014 29.94 843 24.89 7 44.6 66 1.1 33.9 7.14 0.281
09:39 1014 29.94 843 24.89 7.1 44.8 65 0.9 33.6 7.29 0.287
09:40 1014 29.94 843 24.89 7.2 45 64 1 33.7 7.39 0.291
09:41 1014 29.94 844 24.92 7.3 45.1 66 1.4 34.5 7.5 0.295
09:42 1014 29.94 844 24.92 7.4 45.2 65 1.3 34.3 7.55 0.297
09:43 1014 29.94 844 24.92 7.4 45.3 64 1 33.8 7.65 0.301
09:44 1014 29.94 843 24.89 7.5 45.5 64 1.2 34.2 7.73 0.304
09:45 1014 29.94 844 24.92 7.6 45.6 65 1.5 34.8 7.81 0.307
09:46 1014 29.94 843 24.89 7.7 45.8 67 1.9 35.5 7.92 0.312
09:47 1014 29.94 843 24.89 7.8 46 66 1.8 35.2 8.04 0.317
09:48 1014 29.94 843 24.89 7.8 46 65 1.8 35.2 8.07 0.318
09:49 1014 29.94 843 24.89 7.8 46.1 67 2.1 35.7 8.12 0.32
09:50 1014 29.94 843 24.89 7.9 46.2 63 1.4 34.4 8.17 0.322
09:51 1014 29.94 843 24.89 7.8 46.1 64 1.4 34.6 8.16 0.321
09:52 1014 29.94 843 24.89 7.7 45.9 64 1.4 34.6 8.08 0.318
09:53 1014 29.94 843 24.89 7.6 45.7 63 1.1 34 8.01 0.315
09:54 1014 29.94 843 24.89 7.6 45.6 66 1.6 34.9 7.96 0.313
09:55 1014 29.94 843 24.89 7.6 45.6 67 1.8 35.3 8 0.315
09:56 1014 29.94 843 24.89 7.6 45.6 67 1.9 35.5 8.01 0.315
09:57 1014 29.94 843 24.89 7.6 45.7 67 1.9 35.3 8.04 0.317
09:58 1014 29.94 843 24.89 7.7 45.8 64 1.4 34.6 8.11 0.319
09:59 1014 29.94 843 24.89 7.7 45.9 65 1.6 34.8 8.18 0.322
10:00 1014 29.94 843 24.89 7.8 46.1 65 1.7 35.1 8.29 0.326
10:01 1014 29.94 843 24.89 7.9 46.2 62 1.1 33.9 8.35 0.329
10:02 1014 29.94 844 24.92 8 46.3 65 1.9 35.4 8.45 0.333
10:03 1014 29.94 844 24.92 8.1 46.5 62 1.3 34.4 8.53 0.336
10:04 1014 29.94 844 24.92 8.1 46.7 65 1.9 35.4 8.62 0.339
10:05 1014 29.94 844 24.92 8.3 46.9 67 2.5 36.4 8.71 0.343
10:06 1014 29.94 844 24.92 8.4 47 67 2.7 36.9 8.83 0.348
10:07 1014 29.94 844 24.92 8.6 47.5 61 1.5 34.7 8.94 0.352
10:08 1014 29.94 844 24.92 8.8 47.8 62 2 35.5 9.05 0.356
10:09 1014 29.94 844 24.92 8.9 47.9 58 1 33.9 9.14 0.36
10:10 1014 29.94 844 24.92 8.8 47.8 58 1 33.9 9.08 0.357
10:11 1014 29.94 844 24.92 8.8 47.8 57 0.7 33.2 9.09 0.358
10:12 1014 29.94 844 24.92 8.7 47.7 59 1.3 34.3 9.06 0.357
10:13 1014 29.94 844 24.92 8.8 47.8 64 2.3 36.1 9.11 0.359
10:14 1014 29.94 844 24.92 8.8 47.9 60 1.6 34.9 9.15 0.36
10:15 1014 29.94 844 24.92 8.9 48 61 1.8 35.2 9.24 0.364
10:16 1015 29.97 844 24.92 9 48.1 63 2.2 36 9.27 0.365
10:17 1014 29.94 844 24.92 9 48.1 59 1.3 34.4 9.35 0.368
10:18 1014 29.94 844 24.92 9 48.2 59 1.4 34.6 9.32 0.367
10:19 1014 29.94 844 24.92 9 48.1 57 0.9 33.6 9.36 0.369
10:20 1014 29.94 844 24.92 9 48.2 59 1.5 34.7 9.33 0.367
10:21 1014 29.94 844 24.92 9 48.2 62 2 35.6 9.38 0.369
10:22 1014 29.94 844 24.92 9 48.2 61 1.9 35.4 9.39 0.37
10:23 1014 29.94 844 24.92 9 48.1 63 2.3 36.1 9.42 0.371
10:24 1014 29.94 844 24.92 9 48.2 60 1.8 35.2 9.41 0.37
10:25 1014 29.94 844 24.92 9 48.2 62 2.2 36 9.44 0.372
10:26 1014 29.94 844 24.92 9 48.3 61 1.9 35.4 9.46 0.372
10:27 1014 29.94 844 24.92 9.1 48.3 60 1.9 35.3 9.48 0.373
10:28 1014 29.94 844 24.92 9.1 48.4 60 1.7 35.1 9.52 0.375
10:29 1014 29.94 844 24.92 9.2 48.5 59 1.7 35 9.57 0.377
10:30 1014 29.94 844 24.92 9.2 48.5 60 1.9 35.4 9.6 0.378
10:31 1014 29.94 844 24.92 9.3 48.7 56 1.1 33.9 9.67 0.381
10:32 1014 29.94 844 24.92 9.3 48.7 57 1.3 34.3 9.71 0.382
10:33 1014 29.94 844 24.92 9.4 48.8 58 1.6 34.9 9.77 0.385
10:34 1014 29.94 844 24.92 9.5 49.1 57 1.4 34.6 9.84 0.387
10:35 1014 29.94 844 24.92 9.7 49.4 56 1.4 34.5 9.92 0.391
10:36 1014 29.94 844 24.92 9.7 49.5 55 1.2 34.1 10.01 0.394
10:37 1014 29.94 844 24.92 9.8 49.7 54 1.1 34 10.05 0.396
10:38 1014 29.94 844 24.92 9.9 49.8 56 1.6 34.9 10.11 0.398
10:39 1014 29.94 844 24.92 10.1 50.1 55 1.4 34.6 10.25 0.404
10:40 1014 29.94 844 24.92 10.2 50.4 56 1.8 35.3 10.35 0.407
10:41 1014 29.94 844 24.92 10.3 50.6 53 1.2 34.1 10.44 0.411
10:42 1014 29.94 844 24.92 10.4 50.8 53 1.4 34.5 10.53 0.415
10:43 1014 29.94 844 24.92 10.5 50.8 54 1.7 35 10.53 0.415
10:44 1014 29.94 844 24.92 10.4 50.8 53 1.4 34.5 10.5 0.413
10:45 1014 29.94 844 24.92 10.4 50.7 56 2 35.6 10.47 0.412
10:46 1014 29.94 844 24.92 10.3 50.6 54 1.4 34.5 10.46 0.412
10:47 1014 29.94 844 24.92 10.3 50.5 54 1.5 34.7 10.47 0.412
10:48 1014 29.94 844 24.92 10.3 50.6 55 1.6 34.9 10.45 0.411
10:49 1014 29.94 844 24.92 10.3 50.6 56 2.1 35.7 10.5 0.413
10:50 1014 29.94 844 24.92 10.4 50.7 55 1.8 35.2 10.54 0.415
10:51 1014 29.94 844 24.92 10.5 50.8 55 2 35.5 10.55 0.415
10:52 1014 29.94 844 24.92 10.7 51.2 56 2.2 35.9 10.75 0.423
10:53 1014 29.94 844 24.92 11 51.8 54 2.1 35.9 10.96 0.431
10:54 1014 29.94 844 24.92 11.3 52.3 52 1.9 35.3 11.2 0.441
10:55 1014 29.94 844 24.92 11.5 52.7 49 1.3 34.3 11.42 0.45
10:56 1014 29.94 844 24.92 11.7 53.1 55 3.1 37.6 11.67 0.459
10:57 1014 29.94 844 24.92 12 53.7 51 2.1 35.8 11.93 0.47
10:58 1014 29.94 843 24.89 12.2 54 51 2.4 36.3 12.12 0.477
10:59 1014 29.94 843 24.89 12.3 54.2 47 1.5 34.7 12.24 0.482
11:00 1014 29.94 843 24.89 12.3 54.2 44 0.4 32.7 12.21 0.481
11:01 1014 29.94 843 24.89 12.1 53.7 44 0.1 32.2 11.92 0.469
11:02 1014 29.94 843 24.89 11.9 53.4 46 0.6 33 11.84 0.466
11:03 1014 29.94 843 24.89 11.9 53.4 44 0.1 32.1 11.82 0.465
11:04 1014 29.94 843 24.89 11.8 53.2 45 0.3 32.6 11.73 0.462
11:05 1014 29.94 843 24.89 11.8 53.2 45 0.2 32.3 11.69 0.46
11:06 1014 29.94 843 24.89 11.8 53.2 43 -0.4 31.2 11.59 0.456
11:07 1014 29.94 843 24.89 11.8 53.2 45 0.4 32.7 11.53 0.454
11:08 1014 29.94 843 24.89 11.7 53.1 46 0.5 33 11.51 0.453
11:09 1014 29.94 843 24.89 11.7 53 47 0.7 33.2 11.45 0.451
11:10 1014 29.94 843 24.89 11.6 52.9 44 -0.2 31.6 11.6 0.457
11:11 1014 29.94 843 24.89 11.7 53 44 0 32 11.61 0.457
11:12 1014 29.94 843 24.89 11.6 52.8 44 -0.3 31.4 11.53 0.454
11:13 1014 29.94 843 24.89 11.5 52.7 46 0.5 32.8 11.43 0.45
11:14 1014 29.94 843 24.89 11.4 52.5 44 -0.5 31 11.31 0.445
11:15 1014 29.94 843 24.89 11.2 52.2 46 0 32.1 11.16 0.439
11:16 1014 29.94 843 24.89 11.1 51.9 48 0.6 33.1 11.06 0.435
11:17 1014 29.94 843 24.89 11 51.7 48 0.5 32.9 10.93 0.43
11:18 1014 29.94 843 24.89 10.8 51.5 50 0.8 33.4 10.83 0.426
11:19 1014 29.94 843 24.89 10.7 51.3 51 1.1 34 10.77 0.424
11:20 1014 29.94 843 24.89 10.7 51.2 48 0.1 32.2 10.76 0.424
11:21 1014 29.94 843 24.89 10.6 51.1 49 0.3 32.6 10.7 0.421
11:22 1014 29.94 843 24.89 10.6 51.1 46 -0.5 31.1 10.75 0.423
11:23 1014 29.94 843 24.89 10.6 51.1 46 -0.4 31.3 10.79 0.425
11:24 1014 29.94 843 24.89 10.7 51.2 49 0.3 32.6 10.88 0.428
11:25 1014 29.94 843 24.89 10.8 51.4 47 0 32.1 10.91 0.43
11:26 1014 29.94 843 24.89 10.9 51.5 45 -0.6 30.8 10.95 0.431
11:27 1014 29.94 843 24.89 10.8 51.5 46 -0.3 31.5 10.96 0.431
11:28 1014 29.94 843 24.89 10.8 51.5 46 -0.4 31.3 10.94 0.431
11:29 1014 29.94 843 24.89 10.9 51.6 47 0 32.1 11.01 0.433
11:30 1014 29.94 843 24.89 10.9 51.6 46 -0.1 31.8 11.03 0.434
11:31 1014 29.94 843 24.89 10.9 51.6 48 0.4 32.7 11.06 0.435
11:32 1014 29.94 843 24.89 10.9 51.7 48 0.4 32.7 11.09 0.437
11:33 1014 29.94 843 24.89 11 51.7 46 -0.2 31.7 11.15 0.439
11:34 1014 29.94 843 24.89 11 51.8 48 0.5 32.9 11.17 0.44
11:35 1014 29.94 843 24.89 11 51.8 47 0.2 32.4 11.24 0.443
11:36 1014 29.94 843 24.89 11.1 52 48 0.7 33.2 11.3 0.445
11:37 1014 29.94 843 24.89 11.2 52.1 44 -0.4 31.2 11.33 0.446
11:38 1014 29.94 843 24.89 11.2 52.2 46 0.1 32.2 11.4 0.449
11:39 1014 29.94 843 24.89 11.4 52.4 43 -0.6 30.9 11.52 0.454
11:40 1014 29.94 843 24.89 11.5 52.6 45 -0.1 31.9 11.61 0.457
11:41 1014 29.94 843 24.89 11.5 52.7 44 -0.3 31.4 11.67 0.459
11:42 1014 29.94 843 24.89 11.6 52.8 42 -1 30.3 11.69 0.46
11:43 1014 29.94 843 24.89 11.6 52.8 45 0 32 11.79 0.464
11:44 1014 29.94 843 24.89 11.7 53 46 0.4 32.7 11.87 0.467
11:45 1014 29.94 843 24.89 11.8 53.3 45 0.4 32.6 12.02 0.473
11:46 1014 29.94 843 24.89 11.9 53.5 44 0.2 32.4 12.05 0.474
11:47 1014 29.94 843 24.89 12 53.6 48 1.3 34.3 12.12 0.477
11:48 1014 29.94 843 24.89 12.1 53.7 46 1 33.8 12.14 0.478
11:49 1014 29.94 843 24.89 12.1 53.8 44 0.2 32.3 12.26 0.483
11:50 1014 29.94 843 24.89 12.1 53.8 44 0.2 32.4 12.34 0.486
11:51 1014 29.94 843 24.89 12.1 53.8 41 -0.6 30.9 12.4 0.488
11:52 1014 29.94 843 24.89 12.2 53.9 41 -0.7 30.7 12.44 0.49
11:53 1014 29.94 843 24.89 12.1 53.7 42 -0.4 31.3 12.35 0.486
11:54 1014 29.94 843 24.89 11.9 53.4 41 -0.8 30.6 12.25 0.482
11:55 1014 29.94 843 24.89 11.8 53.2 44 -0.1 31.9 12.09 0.476
11:56 1014 29.94 843 24.89 11.8 53.2 42 -0.5 31.1 12.16 0.479
11:57 1014 29.94 843 24.89 12 53.6 46 0.9 33.6 12.42 0.489
11:58 1014 29.94 843 24.89 12.2 54 43 0.1 32.3 12.61 0.496
11:59 1014 29.94 843 24.89 12.4 54.3 39 -1.3 29.7 12.61 0.496
12:00 1014 29.94 843 24.89 12.4 54.3 41 -0.3 31.5 12.53 0.493
12:01 1014 29.94 843 24.89 12.4 54.4 40 -0.6 30.9 12.57 0.495
12:02 1014 29.94 843 24.89 12.5 54.4 45 1 33.9 12.56 0.494
12:03 1014 29.94 843 24.89 12.4 54.3 43 0.3 32.5 12.56 0.494
12:04 1014 29.94 843 24.89 12.4 54.3 43 0.3 32.6 12.6 0.496
12:05 1014 29.94 843 24.89 12.5 54.4 44 0.6 33.1 12.62 0.497
12:06 1014 29.94 843 24.89 12.6 54.6 45 1 33.9 12.69 0.5
12:07 1014 29.94 843 24.89 12.6 54.6 44 0.8 33.4 12.74 0.502
12:08 1014 29.94 843 24.89 12.6 54.7 41 -0.1 31.8 12.84 0.506
12:09 1014 29.94 843 24.89 12.6 54.7 45 1 33.8 12.74 0.502
12:10 1014 29.94 843 24.89 12.6 54.7 44 0.7 33.3 12.74 0.502
12:11 1014 29.94 843 24.89 12.6 54.7 41 -0.2 31.6 12.79 0.504
12:12 1014 29.94 843 24.89 12.5 54.4 45 0.8 33.5 12.71 0.5
12:13 1014 29.94 843 24.89 12.3 54.2 45 0.7 33.2 12.61 0.496
12:14 1014 29.94 843 24.89 12.3 54.2 44 0.5 32.9 12.61 0.496
12:15 1014 29.94 843 24.89 12.4 54.3 43 0.2 32.3 12.66 0.498
12:16 1014 29.94 843 24.89 12.4 54.3 42 -0.2 31.6 12.67 0.499
12:17 1014 29.94 843 24.89 12.4 54.4 44 0.5 32.9 12.62 0.497
12:18 1014 29.94 843 24.89 12.6 54.6 45 1.2 34.1 12.78 0.503
12:19 1014 29.94 843 24.89 12.7 54.9 43 0.5 32.9 12.87 0.507
12:20 1014 29.94 843 24.89 12.8 55 43 0.5 32.8 12.92 0.509
12:21 1014 29.94 843 24.89 12.8 55 43 0.4 32.7 12.85 0.506
12:22 1014 29.94 843 24.89 12.7 54.9 41 -0.3 31.5 12.84 0.506
12:23 1014 29.94 843 24.89 12.6 54.7 45 1.1 34 12.77 0.503
12:24 1014 29.94 843 24.89 12.6 54.6 40 -0.7 30.7 12.76 0.502
12:25 1014 29.94 843 24.89 12.6 54.6 40 -0.5 31.1 12.81 0.504
12:26 1014 29.94 843 24.89 12.6 54.7 40 -0.5 31.1 12.94 0.509
12:27 1014 29.94 843 24.89 12.7 54.9 41 -0 32 12.9 0.508
12:28 1014 29.94 843 24.89 12.9 55.2 42 0.4 32.6 12.98 0.511
12:29 1014 29.94 843 24.89 12.9 55.2 41 -0.1 31.9 12.99 0.511
12:30 1014 29.94 843 24.89 12.9 55.3 43 0.9 33.6 13.02 0.513
12:31 1014 29.94 843 24.89 13.1 55.5 40 -0 32 13.17 0.519
12:32 1014 29.94 843 24.89 13.1 55.6 41 0.4 32.7 13.22 0.52
12:33 1014 29.94 843 24.89 13.1 55.5 41 0 32.1 13.18 0.519
12:34 1014 29.94 843 24.89 13 55.4 40 -0.4 31.3 13.09 0.515
12:35 1014 29.94 843 24.89 13 55.4 43 0.7 33.2 13.11 0.516
12:36 1014 29.94 843 24.89 13 55.5 42 0.4 32.7 13.09 0.515
12:37 1014 29.94 843 24.89 13 55.3 43 0.6 33.1 13.13 0.517
12:38 1014 29.94 843 24.89 12.9 55.3 44 1.1 34 13.22 0.52
12:39 1014 29.94 843 24.89 13 55.4 43 0.6 33.2 13.38 0.527
12:40 1014 29.94 843 24.89 13.1 55.5 42 0.6 33 13.36 0.526
12:41 1014 29.94 843 24.89 13 55.5 42 0.6 33 13.38 0.527
12:42 1014 29.94 843 24.89 13.1 55.6 41 0.1 32.2 13.41 0.528
12:43 1014 29.94 843 24.89 13.2 55.7 38 -0.7 30.7 13.39 0.527
12:44 1014 29.94 843 24.89 13.1 55.6 39 -0.4 31.2 13.35 0.526
12:45 1014 29.94 843 24.89 13.1 55.5 42 0.4 32.7 13.34 0.525
12:46 1014 29.94 843 24.89 12.9 55.2 41 -0.1 31.9 13.19 0.519
12:47 1014 29.94 843 24.89 12.9 55.2 46 1.5 34.8 13.17 0.519
12:48 1014 29.94 843 24.89 13 55.4 43 0.6 33.2 13.33 0.525
12:49 1014 29.94 843 24.89 13.1 55.5 40 -0.3 31.4 13.38 0.527
12:50 1014 29.94 843 24.89 13 55.4 42 0.3 32.6 13.34 0.525
12:51 1014 29.94 843 24.89 13 55.3 43 0.9 33.5 13.29 0.523
12:52 1014 29.94 843 24.89 13.1 55.5 45 1.4 34.6 13.37 0.526
12:53 1014 29.94 843 24.89 13.1 55.6 41 0.2 32.4 13.43 0.529
12:54 1014 29.94 843 24.89 13.1 55.5 39 -0.4 31.2 13.35 0.526
12:55 1014 29.94 843 24.89 13 55.4 39 -0.6 30.9 13.21 0.52
12:56 1014 29.94 843 24.89 13 55.5 41 0.2 32.4 13.23 0.521
12:57 1014 29.94 843 24.89 13.1 55.7 42 0.5 33 13.3 0.524
12:58 1014 29.94 843 24.89 13.1 55.7 40 -0.2 31.6 13.39 0.527
12:59 1014 29.94 843 24.89 13.1 55.6 41 0.3 32.6 13.36 0.526
13:00 1014 29.94 843 24.89 13 55.4 45 1.3 34.4 13.3 0.524
13:01 1014 29.94 843 24.89 13.2 55.7 45 1.4 34.6 13.51 0.532
13:02 1014 29.94 843 24.89 13.4 56.1 40 0.1 32.2 13.71 0.54
13:03 1014 29.94 843 24.89 13.4 56.1 38 -0.4 31.3 13.69 0.539
13:04 1014 29.94 843 24.89 13.3 55.9 41 0.3 32.6 13.53 0.533
13:05 1014 29.94 843 24.89 13.3 55.9 41 0.5 33 13.52 0.532
13:06 1014 29.94 843 24.89 13.4 56 41 0.5 32.9 13.49 0.531
13:07 1014 29.94 843 24.89 13.4 56.1 40 0.1 32.2 13.53 0.533
13:08 1013 29.91 843 24.89 13.4 56.1 44 1.5 34.7 13.52 0.532
13:09 1013 29.91 843 24.89 13.4 56.2 41 0.7 33.2 13.66 0.538
13:10 1013 29.91 843 24.89 13.5 56.2 40 0.2 32.3 13.58 0.535
13:11 1013 29.91 843 24.89 13.3 56 42 0.8 33.4 13.53 0.533
13:12 1013 29.91 843 24.89 13.4 56.1 41 0.5 32.9 13.64 0.537
13:13 1013 29.91 843 24.89 13.4 56.2 43 1.2 34.1 13.74 0.541
13:14 1013 29.91 843 24.89 13.6 56.4 40 0.3 32.6 13.71 0.54
13:15 1013 29.91 843 24.89 13.4 56.2 42 0.9 33.6 13.64 0.537
13:16 1013 29.91 843 24.89 13.4 56 42 0.8 33.4 13.57 0.534
13:17 1013 29.91 843 24.89 13.4 56 41 0.4 32.6 13.58 0.535
13:18 1013 29.91 843 24.89 13.5 56.2 40 0.3 32.5 13.64 0.537
13:19 1013 29.91 843 24.89 13.5 56.3 42 1 33.8 13.67 0.538
13:20 1013 29.91 843 24.89 13.6 56.5 41 0.6 33 13.74 0.541
13:21 1013 29.91 843 24.89 13.6 56.5 40 0.3 32.6 13.77 0.542
13:22 1013 29.91 843 24.89 13.6 56.6 43 1.2 34.2 13.83 0.544
13:23 1013 29.91 843 24.89 13.8 56.9 43 1.6 34.9 14.05 0.553
13:24 1013 29.91 843 24.89 14 57.2 44 2.1 35.7 14.17 0.558
13:25 1013 29.91 843 24.89 14.1 57.3 40 0.7 33.3 14.29 0.563
13:26 1013 29.91 843 24.89 14 57.1 39 0.2 32.4 14.22 0.56
13:27 1013 29.91 843 24.89 13.8 56.9 41 1 33.8 13.97 0.55
13:28 1013 29.91 843 24.89 13.6 56.4 44 1.6 34.9 13.8 0.543
13:29 1013 29.91 843 24.89 13.4 56.1 42 0.9 33.6 13.66 0.538
13:30 1013 29.91 843 24.89 13.3 55.9 44 1.3 34.3 13.54 0.533
13:31 1013 29.91 843 24.89 13.2 55.8 43 1 33.8 13.48 0.531
13:32 1013 29.91 843 24.89 13.1 55.6 44 1.2 34.2 13.36 0.526
13:33 1013 29.91 843 24.89 13.1 55.6 45 1.4 34.5 13.3 0.524
13:34 1013 29.91 843 24.89 13.1 55.6 42 0.5 32.9 13.31 0.524
13:35 1013 29.91 843 24.89 13.2 55.7 47 2.3 36.2 13.35 0.526
13:36 1013 29.91 843 24.89 13.3 55.9 48 2.6 36.6 13.51 0.532
13:37 1013 29.91 843 24.89 13.4 56.2 40 0.1 32.2 13.66 0.538
13:38 1013 29.91 843 24.89 13.5 56.3 41 0.7 33.2 13.66 0.538
13:39 1013 29.91 843 24.89 13.5 56.4 40 0.2 32.4 13.73 0.541
13:40 1013 29.91 843 24.89 13.5 56.3 44 1.6 34.9 13.68 0.539
13:41 1013 29.91 843 24.89 13.5 56.4 43 1.1 34 13.64 0.537
13:42 1013 29.91 843 24.89 13.6 56.4 41 0.8 33.4 13.75 0.541
13:43 1013 29.91 843 24.89 13.6 56.5 41 0.8 33.4 13.72 0.54
13:44 1013 29.91 843 24.89 13.6 56.5 40 0.5 32.9 13.72 0.54
13:45 1013 29.91 843 24.89 13.5 56.4 44 1.6 35 13.68 0.539
13:46 1013 29.91 843 24.89 13.6 56.4 43 1.2 34.2 13.78 0.543
13:47 1013 29.91 843 24.89 13.6 56.4 42 1 33.7 13.76 0.542
13:48 1013 29.91 843 24.89 13.6 56.5 41 0.7 33.2 13.76 0.542
13:49 1013 29.91 843 24.89 13.6 56.4 40 0.5 32.8 13.74 0.541
13:50 1013 29.91 843 24.89 13.5 56.2 44 1.6 34.9 13.67 0.538
13:51 1013 29.91 843 24.89 13.4 56.1 43 1.1 33.9 13.58 0.535
13:52 1013 29.91 843 24.89 13.3 56 41 0.4 32.7 13.52 0.532
13:53 1013 29.91 842 24.86 13.4 56.1 42 0.9 33.6 13.54 0.533
13:54 1013 29.91 842 24.86 13.5 56.4 41 0.6 33.1 13.6 0.535
13:55 1013 29.91 842 24.86 13.6 56.4 38 -0.4 31.4 13.63 0.537
13:56 1013 29.91 842 24.86 13.5 56.4 43 1.3 34.4 13.58 0.535
13:57 1013 29.91 842 24.86 13.5 56.3 38 -0.4 31.3 13.62 0.536
13:58 1013 29.91 842 24.86 13.5 56.3 42 1 33.7 13.67 0.538
13:59 1013 29.91 842 24.86 13.6 56.6 41 0.7 33.3 13.82 0.544
14:00 1013 29.91 842 24.86 13.7 56.7 41 0.8 33.5 13.88 0.546
14:01 1013 29.91 842 24.86 13.8 56.9 42 1.2 34.2 13.88 0.546
14:02 1013 29.91 842 24.86 13.8 56.8 41 0.7 33.3 13.89 0.547
14:03 1013 29.91 842 24.86 13.9 57 37 -0.4 31.3 13.93 0.548
14:04 1013 29.91 842 24.86 13.9 57 40 0.5 33 13.99 0.551
14:05 1013 29.91 842 24.86 14 57.2 41 0.9 33.7 14.06 0.554
14:06 1013 29.91 842 24.86 14 57.2 37 -0.4 31.3 14.1 0.555
14:07 1013 29.91 842 24.86 13.9 57.1 41 1.1 34 14.08 0.554
14:08 1013 29.91 842 24.86 13.9 57.1 41 1.1 34 14.06 0.554
14:09 1013 29.91 842 24.86 13.9 57.1 40 0.6 33 14 0.551
14:10 1013 29.91 842 24.86 13.9 57 41 1 33.7 13.99 0.551
14:11 1013 29.91 842 24.86 13.9 57.1 38 -0 31.9 14.1 0.555
14:12 1013 29.91 842 24.86 14 57.2 41 1 33.7 14.12 0.556
14:13 1013 29.91 842 24.86 14 57.3 38 0.1 32.1 14.15 0.557
14:14 1013 29.91 842 24.86 14.1 57.3 36 -0.6 30.9 14.21 0.559
14:15 1013 29.91 842 24.86 14.1 57.3 37 -0.2 31.6 14.21 0.559
14:16 1013 29.91 842 24.86 14 57.2 37 -0.3 31.5 14.18 0.558
14:17 1013 29.91 842 24.86 14 57.2 37 -0.4 31.3 14.12 0.556
14:18 1013 29.91 842 24.86 13.9 57.1 38 -0.2 31.7 14.11 0.556
14:19 1013 29.91 842 24.86 13.9 57 38 -0.2 31.6 14.04 0.553
14:20 1013 29.91 842 24.86 13.8 56.9 36 -0.8 30.5 14.08 0.554
14:21 1013 29.91 842 24.86 13.7 56.7 39 0 32 14.06 0.554
14:22 1013 29.91 842 24.86 13.8 56.8 40 0.3 32.6 14.08 0.554
14:23 1013 29.91 842 24.86 13.8 56.9 39 0.1 32.2 14.16 0.557
14:24 1013 29.91 842 24.86 13.9 57 38 -0.3 31.5 14.15 0.557
14:25 1013 29.91 842 24.86 13.9 57.1 39 0.4 32.8 14.1 0.555
14:26 1013 29.91 842 24.86 13.9 57 36 -0.9 30.3 14.15 0.557
14:27 1013 29.91 842 24.86 13.9 57 37 -0.5 31.2 14.17 0.558
14:28 1013 29.91 842 24.86 13.9 57 37 -0.5 31.1 14.21 0.559
14:29 1013 29.91 842 24.86 13.8 56.9 38 -0.2 31.6 14.25 0.561
14:30 1013 29.91 842 24.86 13.9 57.1 42 1.4 34.5 14.32 0.564
14:31 1013 29.91 842 24.86 14.1 57.3 38 -0 32 14.41 0.567
14:32 1013 29.91 842 24.86 14.2 57.6 37 -0 32 14.46 0.569
14:33 1013 29.91 842 24.86 14.3 57.8 36 -0.3 31.4 14.54 0.572
14:34 1013 29.91 842 24.86 14.2 57.6 35 -0.9 30.3 14.38 0.566
14:35 1013 29.91 842 24.86 14.1 57.3 36 -0.6 30.9 14.14 0.557
14:36 1013 29.91 842 24.86 13.9 57 40 0.8 33.4 14.06 0.554
14:37 1013 29.91 842 24.86 13.8 56.8 38 -0.1 31.8 13.95 0.549
14:38 1013 29.91 842 24.86 13.7 56.6 38 -0.5 31.2 13.9 0.547
14:39 1013 29.91 842 24.86 13.7 56.6 40 0.4 32.8 13.88 0.546
14:40 1013 29.91 842 24.86 13.6 56.6 37 -0.8 30.5 13.82 0.544
14:41 1013 29.91 842 24.86 13.6 56.6 41 0.6 33.1 13.8 0.543
14:42 1013 29.91 842 24.86 13.7 56.7 39 0 32 13.98 0.55
14:43 1013 29.91 842 24.86 13.9 57 36 -0.9 30.4 14.14 0.557
14:44 1013 29.91 842 24.86 14.1 57.3 36 -0.5 31.1 14.34 0.565
14:45 1013 29.91 842 24.86 14.2 57.6 39 0.7 33.2 14.48 0.57
14:46 1013 29.91 842 24.86 14.4 57.8 38 0.2 32.4 14.6 0.575
14:47 1013 29.91 842 24.86 14.4 57.9 38 0.2 32.4 14.63 0.576
14:48 1013 29.91 842 24.86 14.4 57.9 37 -0.2 31.7 14.55 0.573
14:49 1013 29.91 842 24.86 14.3 57.7 37 -0.2 31.7 14.55 0.573
14:50 1013 29.91 842 24.86 14.2 57.5 36 -0.7 30.7 14.46 0.569
14:51 1013 29.91 842 24.86 14.1 57.3 39 0.3 32.6 14.38 0.566
14:52 1013 29.91 842 24.86 14 57.2 37 -0.5 31.1 14.27 0.562
14:53 1013 29.91 842 24.86 13.8 56.9 36 -0.8 30.5 14.18 0.558
14:54 1013 29.91 842 24.86 13.8 56.8 36 -0.9 30.3 14.1 0.555
14:55 1013 29.91 842 24.86 13.8 56.8 37 -0.7 30.7 14 0.551
14:56 1013 29.91 842 24.86 13.8 56.8 40 0.4 32.8 14.05 0.553
14:57 1013 29.91 842 24.86 13.9 57.1 41 0.9 33.6 14.18 0.558
14:58 1013 29.91 842 24.86 14.1 57.3 38 0.1 32.2 14.45 0.569
14:59 1013 29.91 842 24.86 14.1 57.5 35 -1 30.2 14.51 0.571
15:00 1013 29.91 842 24.86 14.1 57.5 36 -0.8 30.6 14.55 0.573
15:01 1013 29.91 842 24.86 14.1 57.4 35 -1 30.1 14.53 0.572
15:02 1013 29.91 842 24.86 14.1 57.3 38 0.1 32.3 14.44 0.569
15:03 1013 29.91 842 24.86 14 57.3 36 -0.8 30.5 14.39 0.567
15:04 1013 29.91 842 24.86 14 57.2 36 -0.9 30.4 14.4 0.567
15:05 1013 29.91 842 24.86 14 57.2 38 0.1 32.2 14.37 0.566
15:06 1013 29.91 842 24.86 14 57.1 38 0.1 32.1 14.37 0.566
15:07 1013 29.91 842 24.86 13.9 57.1 38 -0.1 31.8 14.36 0.565
15:08 1013 29.91 842 24.86 13.9 57.1 42 1.2 34.2 14.35 0.565
15:09 1013 29.91 842 24.86 14 57.2 41 1 33.7 14.44 0.569
15:10 1013 29.91 842 24.86 14.1 57.3 37 -0.3 31.4 14.44 0.569
15:11 1013 29.91 842 24.86 14.1 57.3 42 1.4 34.6 14.42 0.568
15:12 1013 29.91 842 24.86 14.1 57.3 39 0.3 32.5 14.47 0.57
15:13 1013 29.91 842 24.86 14 57.3 39 0.4 32.8 14.34 0.565
15:14 1013 29.91 842 24.86 14 57.1 37 -0.5 31.2 14.29 0.563
15:15 1013 29.91 842 24.86 14 57.1 38 -0.1 31.8 14.29 0.563
15:16 1013 29.91 842 24.86 13.9 57.1 36 -0.7 30.8 14.26 0.561
15:17 1013 29.91 842 24.86 13.9 57 37 -0.5 31 14.23 0.56
15:18 1013 29.91 842 24.86 13.9 57 39 0.1 32.2 14.19 0.559
15:19 1013 29.91 842 24.86 13.9 57 37 -0.3 31.5 14.18 0.558
15:20 1013 29.91 842 24.86 13.8 56.9 38 -0 32 14.08 0.554
15:21 1013 29.91 842 24.86 13.8 56.8 38 -0.1 31.9 14.06 0.554
15:22 1013 29.91 842 24.86 13.7 56.7 37 -0.7 30.8 14.02 0.552
15:23 1013 29.91 842 24.86 13.7 56.6 38 -0.2 31.7 14.01 0.552
15:24 1013 29.91 842 24.86 13.8 56.8 38 -0.3 31.4 14.06 0.554
15:25 1013 29.91 842 24.86 13.9 57 36 -0.7 30.8 14.19 0.559
15:26 1013 29.91 842 24.86 14.1 57.3 37 -0.2 31.6 14.37 0.566
15:27 1013 29.91 842 24.86 14.2 57.6 37 -0.2 31.6 14.54 0.572
15:28 1013 29.91 842 24.86 14.4 57.8 38 0.2 32.4 14.61 0.575
15:29 1013 29.91 842 24.86 14.5 58.1 37 0.2 32.3 14.7 0.579
15:30 1013 29.91 842 24.86 14.6 58.3 36 -0.4 31.3 14.82 0.583
15:31 1013 29.91 842 24.86 14.7 58.4 34 -1 30.1 14.86 0.585
15:32 1013 29.91 842 24.86 14.5 58.1 33 -1.4 29.5 14.75 0.581
15:33 1013 29.91 842 24.86 14.3 57.7 35 -0.7 30.7 14.53 0.572
15:34 1013 29.91 842 24.86 14.2 57.5 38 0 32.1 14.49 0.57
15:35 1013 29.91 842 24.86 14.1 57.4 36 -0.8 30.6 14.45 0.569
15:36 1013 29.91 842 24.86 14.2 57.5 38 0 32.1 14.5 0.571
15:37 1013 29.91 842 24.86 14.3 57.7 34 -1.3 29.7 14.6 0.575
15:38 1013 29.91 842 24.86 14.4 57.9 37 -0.1 31.9 14.66 0.577
15:39 1013 29.91 842 24.86 14.4 57.9 36 -0.4 31.3 14.55 0.573
15:40 1013 29.91 842 24.86 14.3 57.7 35 -1 30.2 14.41 0.567
15:41 1013 29.91 842 24.86 14.2 57.5 37 -0.3 31.4 14.27 0.562
15:42 1013 29.91 842 24.86 14 57.2 37 -0.4 31.4 14.19 0.559
15:43 1013 29.91 842 24.86 13.9 57 35 -1.1 30.1 14.11 0.556
15:44 1013 29.91 842 24.86 13.9 56.9 34 -1.8 28.8 14.1 0.555
15:45 1013 29.91 842 24.86 13.9 57 37 -0.5 31.1 14.11 0.556
15:46 1013 29.91 842 24.86 14 57.2 36 -0.7 30.8 14.18 0.558
15:47 1013 29.91 842 24.86 14.1 57.3 41 1 33.8 14.31 0.563
15:48 1013 29.91 842 24.86 14.1 57.4 37 -0.4 31.3 14.36 0.565
15:49 1013 29.91 842 24.86 14.1 57.4 37 -0.2 31.6 14.38 0.566
15:50 1013 29.91 842 24.86 14.1 57.3 35 -1.2 29.8 14.31 0.563
15:51 1013 29.91 842 24.86 13.9 57.1 35 -1.3 29.7 14.22 0.56
15:52 1013 29.91 842 24.86 13.9 57.1 37 -0.3 31.5 14.24 0.561
15:53 1013 29.91 842 24.86 13.9 57 37 -0.6 30.9 14.23 0.56
15:54 1013 29.91 842 24.86 13.9 57 35 -1.1 30 14.24 0.561
15:55 1013 29.91 842 24.86 13.8 56.8 37 -0.6 30.8 14.16 0.557
15:56 1013 29.91 842 24.86 13.7 56.7 36 -1.1 30.1 14.1 0.555
15:57 1013 29.91 842 24.86 13.7 56.6 43 1.3 34.4 14.06 0.554
15:58 1013 29.91 842 24.86 13.6 56.5 37 -0.7 30.7 14.01 0.552
15:59 1013 29.91 842 24.86 13.6 56.5 38 -0.4 31.2 13.92 0.548
16:00 1013 29.91 842 24.86 13.6 56.4 35 -1.5 29.2 13.87 0.546
16:01 1013 29.91 842 24.86 13.5 56.4 38 -0.4 31.2 13.8 0.543
16:02 1013 29.91 842 24.86 13.5 56.3 37 -0.9 30.3 13.82 0.544
16:03 1013 29.91 842 24.86 13.5 56.3 38 -0.4 31.2 13.81 0.544
16:04 1013 29.91 842 24.86 13.5 56.2 37 -1 30.3 13.79 0.543
16:05 1013 29.91 842 24.86 13.5 56.2 41 0.7 33.2 13.76 0.542
16:06 1013 29.91 842 24.86 13.4 56.1 38 -0.5 31.1 13.73 0.541
16:07 1013 29.91 842 24.86 13.3 56 41 0.3 32.5 13.68 0.539
16:08 1013 29.91 842 24.86 13.3 56 43 1 33.8 13.61 0.536
16:09 1013 29.91 842 24.86 13.3 56 41 0.5 32.9 13.61 0.536
16:10 1013 29.91 842 24.86 13.3 55.9 41 0.5 32.8 13.58 0.535
16:11 1013 29.91 842 24.86 13.2 55.8 42 0.5 33 13.58 0.535
16:12 1013 29.91 842 24.86 13.2 55.7 44 1.2 34.1 13.55 0.533
16:13 1013 29.91 842 24.86 13.2 55.7 45 1.4 34.6 13.55 0.533
16:14 1013 29.91 842 24.86 13.2 55.7 42 0.7 33.2 13.55 0.533
16:15 1013 29.91 842 24.86 13.1 55.6 40 -0.2 31.7 13.51 0.532
16:16 1013 29.91 842 24.86 13.1 55.6 42 0.6 33 13.51 0.532
16:17 1013 29.91 842 24.86 13.1 55.6 41 0.2 32.4 13.51 0.532
16:18 1013 29.91 842 24.86 13.1 55.6 40 -0.3 31.5 13.5 0.531
16:19 1013 29.91 842 24.86 13.1 55.7 44 1.1 34 13.53 0.533
16:20 1013 29.91 842 24.86 13.2 55.7 44 1.2 34.1 13.57 0.534
16:21 1013 29.91 842 24.86 13.2 55.7 40 -0.2 31.7 13.59 0.535
16:22 1013 29.91 842 24.86 13.2 55.7 41 0.4 32.7 13.55 0.533
16:23 1013 29.91 842 24.86 13.2 55.7 40 -0.1 31.9 13.59 0.535
16:24 1013 29.91 842 24.86 13.2 55.8 42 0.7 33.2 13.63 0.537
16:25 1013 29.91 842 24.86 13.3 55.9 39 -0.3 31.4 13.66 0.538
16:26 1013 29.91 842 24.86 13.3 55.9 38 -0.6 30.9 13.66 0.538
16:27 1013 29.91 842 24.86 13.3 55.9 41 0.2 32.4 13.67 0.538
16:28 1013 29.91 842 24.86 13.3 55.9 41 0.3 32.6 13.64 0.537
16:29 1013 29.91 842 24.86 13.2 55.8 42 0.5 33 13.62 0.536
16:30 1013 29.91 842 24.86 13.2 55.8 40 0.1 32.2 13.6 0.535
16:31 1013 29.91 842 24.86 13.2 55.8 40 0 32 13.59 0.535
16:32 1013 29.91 842 24.86 13.2 55.8 40 -0 32 13.59 0.535
16:33 1013 29.91 842 24.86 13.2 55.8 38 -0.7 30.7 13.61 0.536
16:34 1013 29.91 842 24.86 13.2 55.8 38 -0.9 30.4 13.64 0.537
16:35 1013 29.91 842 24.86 13.3 56 37 -0.9 30.3 13.67 0.538
16:36 1013 29.91 842 24.86 13.4 56.1 37 -0.9 30.3 13.72 0.54
16:37 1013 29.91 842 24.86 13.4 56.1 42 0.8 33.4 13.71 0.54
16:38 1013 29.91 842 24.86 13.4 56.1 42 0.8 33.4 13.77 0.542
16:39 1013 29.91 842 24.86 13.5 56.2 39 -0.1 31.8 13.75 0.541
16:40 1013 29.91 842 24.86 13.5 56.2 39 -0.2 31.7 13.77 0.542
16:41 1013 29.91 842 24.86 13.5 56.2 38 -0.4 31.3 13.78 0.543
16:42 1013 29.91 842 24.86 13.5 56.3 37 -0.7 30.8 13.81 0.544
16:43 1013 29.91 842 24.86 13.5 56.4 39 0.1 32.2 13.82 0.544
16:44 1013 29.91 842 24.86 13.6 56.4 39 -0.2 31.7 13.8 0.543
16:45 1013 29.91 842 24.86 13.5 56.3 42 1.1 33.9 13.8 0.543
16:46 1013 29.91 842 24.86 13.5 56.3 44 1.6 34.8 13.8 0.543
16:47 1013 29.91 842 24.86 13.5 56.3 43 1.2 34.1 13.8 0.543
16:48 1013 29.91 842 24.86 13.5 56.2 43 1.4 34.4 13.78 0.543
16:49 1013 29.91 842 24.86 13.5 56.2 38 -0.5 31.1 13.73 0.541
16:50 1013 29.91 842 24.86 13.4 56.1 38 -0.6 30.9 13.71 0.54
16:51 1013 29.91 842 24.86 13.4 56.1 38 -0.5 31.1 13.75 0.541
16:52 1013 29.91 842 24.86 13.4 56.2 38 -0.4 31.3 13.78 0.543
16:53 1013 29.91 842 24.86 13.5 56.2 38 -0.4 31.2 13.83 0.544
16:54 1013 29.91 842 24.86 13.5 56.3 37 -0.8 30.5 13.87 0.546
16:55 1013 29.91 842 24.86 13.5 56.3 43 1.4 34.5 13.9 0.547
16:56 1013 29.91 842 24.86 13.4 56.1 47 2.3 36.1 13.87 0.546
16:57 1013 29.91 842 24.86 13.3 55.9 49 3 37.4 13.76 0.542
16:58 1013 29.91 842 24.86 13.1 55.7 47 2.3 36.1 13.6 0.535
16:59 1013 29.91 842 24.86 13 55.4 47 1.9 35.4 13.47 0.53
17:00 1013 29.91 842 24.86 12.9 55.2 39 -0.6 30.9 13.32 0.524
17:01 1013 29.91 842 24.86 12.9 55.3 49 2.6 36.7 13.29 0.523
17:02 1013 29.91 842 24.86 12.8 55.1 46 1.7 35.1 13.28 0.523
17:03 1013 29.91 842 24.86 12.7 54.8 49 2.4 36.3 13.13 0.517
17:04 1013 29.91 842 24.86 12.6 54.7 51 2.8 37 13.04 0.513
17:05 1013 29.91 842 24.86 12.5 54.5 44 0.6 33.1 12.94 0.509
17:06 1013 29.91 842 24.86 12.4 54.4 46 1 33.9 12.87 0.507
17:07 1013 29.91 842 24.86 12.4 54.3 46 1.1 34 12.85 0.506
17:08 1013 29.91 842 24.86 12.4 54.3 47 1.5 34.7 12.83 0.505
17:09 1013 29.91 842 24.86 12.3 54.1 49 2 35.6 12.72 0.501
17:10 1013 29.91 842 24.86 12.1 53.8 49 1.7 35 12.57 0.495
17:11 1013 29.91 842 24.86 12 53.6 51 2.2 36 12.48 0.491
17:12 1013 29.91 842 24.86 11.8 53.3 51 2 35.5 12.3 0.484
17:13 1013 29.91 842 24.86 11.7 53 49 1.4 34.6 12.15 0.478
17:14 1013 29.91 842 24.86 11.7 53 50 1.6 35 12.09 0.476
17:15 1013 29.91 842 24.86 11.6 52.9 53 2.5 36.4 12.01 0.473
17:16 1013 29.91 842 24.86 11.5 52.6 54 2.5 36.6 11.9 0.469
17:17 1013 29.91 842 24.86 11.3 52.3 55 2.6 36.8 11.79 0.464
17:18 1013 29.91 842 24.86 11.2 52.2 55 2.5 36.5 11.65 0.459
17:19 1013 29.91 842 24.86 11.2 52.1 56 2.8 37 11.59 0.456
17:20 1013 29.91 842 24.86 11.1 52 56 2.7 36.9 11.55 0.455
17:21 1013 29.91 842 24.86 11.1 51.9 57 3 37.5 11.49 0.452
17:22 1013 29.91 842 24.86 11 51.8 57 2.8 37.1 11.43 0.45
17:23 1013 29.91 842 24.86 11 51.8 56 2.7 36.9 11.41 0.449
17:24 1013 29.91 842 24.86 11 51.8 58 3.1 37.6 11.38 0.448
17:25 1013 29.91 842 24.86 10.9 51.7 59 3.3 37.9 11.34 0.446
17:26 1013 29.91 842 24.86 10.9 51.5 58 3 37.4 11.25 0.443
17:27 1013 29.91 842 24.86 10.8 51.5 58 2.8 37.1 11.24 0.443
17:28 1013 29.91 842 24.86 10.8 51.4 57 2.7 36.9 11.23 0.442
17:29 1013 29.91 842 24.86 10.8 51.4 57 2.7 36.9 11.21 0.441
17:30 1013 29.91 842 24.86 10.8 51.5 58 3 37.5 11.21 0.441
17:31 1013 29.91 842 24.86 10.7 51.3 57 2.7 36.8 11.15 0.439
17:32 1013 29.91 842 24.86 10.7 51.2 58 2.9 37.2 11.12 0.438
17:33 1013 29.91 842 24.86 10.7 51.2 60 3.2 37.7 11.09 0.437
17:34 1013 29.91 842 24.86 10.6 51.1 60 3.2 37.8 11 0.433
17:35 1013 29.91 842 24.86 10.5 51 59 3 37.4 10.94 0.431
17:36 1013 29.91 842 24.86 10.5 50.9 59 2.9 37.2 10.87 0.428
17:37 1013 29.91 842 24.86 10.4 50.8 58 2.7 36.8 10.83 0.426
17:38 1013 29.91 842 24.86 10.4 50.8 59 2.8 37.1 10.82 0.426
17:39 1013 29.91 842 24.86 10.4 50.7 59 2.8 37.1 10.76 0.424
17:40 1013 29.91 842 24.86 10.3 50.6 60 3 37.3 10.74 0.423
17:41 1013 29.91 842 24.86 10.2 50.4 61 3.1 37.6 10.65 0.419
17:42 1013 29.91 842 24.86 10.1 50.2 62 3.3 37.9 10.54 0.415
17:43 1013 29.91 842 24.86 10 50.1 63 3.4 38.1 10.45 0.411
17:44 1013 29.91 842 24.86 9.9 49.8 63 3.2 37.8 10.35 0.407
17:45 1013 29.91 842 24.86 9.8 49.7 64 3.4 38.1 10.24 0.403
17:46 1013 29.91 842 24.86 9.8 49.6 64 3.3 38 10.19 0.401
17:47 1013 29.91 842 24.86 9.7 49.5 64 3.2 37.7 10.1 0.398
17:48 1013 29.91 842 24.86 9.7 49.5 63 3.1 37.5 10.07 0.396
17:49 1013 29.91 842 24.86 9.8 49.6 57 1.7 35.1 10.12 0.398
17:50 1013 29.91 842 24.86 9.9 49.8 61 2.9 37.1 10.25 0.404
17:51 1013 29.91 842 24.86 9.9 49.7 63 3.2 37.8 10.25 0.404
17:52 1013 29.91 842 24.86 9.8 49.7 62 2.8 37.1 10.18 0.401
17:53 1013 29.91 842 24.86 9.9 49.8 61 2.8 37.1 10.19 0.401
17:54 1013 29.91 842 24.86 9.9 49.7 60 2.5 36.5 10.18 0.401
17:55 1013 29.91 842 24.86 9.9 49.7 62 3 37.4 10.2 0.402
17:56 1013 29.91 842 24.86 9.7 49.5 62 2.8 37.1 10.06 0.396
17:57 1013 29.91 842 24.86 9.7 49.4 62 2.7 36.8 10.02 0.394
17:58 1013 29.91 842 24.86 9.6 49.3 64 3.1 37.5 9.94 0.391
17:59 1013 29.91 842 24.86 9.5 49 65 3.2 37.8 9.81 0.386
18:00 1013 29.91 842 24.86 9.3 48.7 64 2.9 37.3 9.64 0.38
18:01 1013 29.91 842 24.86 9.3 48.7 64 2.9 37.2 9.59 0.378
18:02 1013 29.91 842 24.86 9.3 48.7 63 2.6 36.6 9.63 0.379
18:03 1013 29.91 842 24.86 9.4 48.9 60 2.1 35.7 9.73 0.383
18:04 1013 29.91 842 24.86 9.6 49.2 59 1.9 35.5 9.8 0.386
18:05 1013 29.91 842 24.86 9.8 49.6 59 2.1 35.7 9.94 0.391
18:06 1013 29.91 842 24.86 9.8 49.7 64 3.3 38 10.02 0.394
18:07 1013 29.91 842 24.86 9.6 49.2 63 3 37.4 9.84 0.387
18:08 1013 29.91 842 24.86 9.3 48.8 66 3.2 37.8 9.65 0.38
18:09 1013 29.91 842 24.86 9.1 48.4 65 3 37.3 9.46 0.372
18:10 1013 29.91 842 24.86 9 48.3 66 3.1 37.7 9.39 0.37
18:11 1013 29.91 842 24.86 8.9 48.1 68 3.3 37.9 9.32 0.367
18:12 1013 29.91 842 24.86 8.8 47.8 69 3.3 38 9.14 0.36
18:13 1013 29.91 842 24.86 8.7 47.6 67 2.8 37.1 9.09 0.358
18:14 1013 29.91 842 24.86 8.8 47.8 65 2.7 36.8 9.15 0.36
18:15 1013 29.91 842 24.86 8.9 48 65 2.8 37 9.25 0.364
18:16 1013 29.91 842 24.86 9 48.1 65 2.7 36.9 9.31 0.367
18:17 1013 29.91 842 24.86 9.1 48.3 63 2.4 36.3 9.35 0.368
18:18 1013 29.91 842 24.86 9.2 48.5 64 2.7 36.9 9.47 0.373
18:19 1013 29.91 842 24.86 9.1 48.4 63 2.4 36.3 9.4 0.37
18:20 1013 29.91 842 24.86 9.2 48.5 63 2.5 36.5 9.53 0.375
18:21 1013 29.91 842 24.86 9.2 48.6 62 2.3 36.2 9.55 0.376
18:22 1013 29.91 842 24.86 9.3 48.7 62 2.5 36.4 9.57 0.377
18:23 1013 29.91 842 24.86 9.2 48.6 63 2.7 36.8 9.55 0.376
18:24 1013 29.91 842 24.86 9.1 48.5 64 2.7 36.9 9.46 0.372
18:25 1013 29.91 842 24.86 9 48.2 64 2.6 36.8 9.34 0.368
18:26 1013 29.91 842 24.86 8.8 47.9 66 2.8 37.1 9.22 0.363
18:27 1013 29.91 842 24.86 8.7 47.7 66 2.8 37.1 9.07 0.357
18:28 1013 29.91 842 24.86 8.6 47.5 66 2.7 36.9 8.97 0.353
18:29 1013 29.91 842 24.86 8.6 47.4 65 2.5 36.4 8.88 0.35
18:30 1013 29.91 842 24.86 8.6 47.4 66 2.7 36.9 8.87 0.349
18:31 1013 29.91 842 24.86 8.5 47.3 67 2.6 36.8 8.81 0.347
18:32 1013 29.91 842 24.86 8.5 47.2 67 2.7 36.9 8.79 0.346
18:33 1013 29.91 842 24.86 8.4 47.1 68 2.8 37.1 8.79 0.346
18:34 1013 29.91 842 24.86 8.3 46.9 69 2.9 37.2 8.66 0.341
18:35 1013 29.91 842 24.86 8.1 46.7 68 2.7 36.8 8.57 0.337
18:36 1013 29.91 842 24.86 8.1 46.6 68 2.6 36.6 8.47 0.333
18:37 1013 29.91 842 24.86 8.1 46.6 68 2.6 36.6 8.48 0.334
18:38 1013 29.91 842 24.86 8.1 46.6 67 2.5 36.5 8.45 0.333
18:39 1013 29.91 842 24.86 8.2 46.8 65 2.1 35.9 8.52 0.335
18:40 1013 29.91 842 24.86 8.3 47 66 2.4 36.3 8.65 0.341
18:41 1013 29.91 842 24.86 8.4 47 67 2.6 36.7 8.71 0.343
18:42 1013 29.91 842 24.86 8.2 46.8 67 2.5 36.5 8.61 0.339
18:43 1013 29.91 842 24.86 8.2 46.8 66 2.3 36.1 8.56 0.337
18:44 1013 29.91 842 24.86 8.3 46.9 66 2.4 36.3 8.55 0.337
18:45 1013 29.91 842 24.86 8.4 47.1 65 2.2 35.9 8.6 0.339
18:46 1013 29.91 842 24.86 8.4 47.2 64 2.1 35.8 8.64 0.34
18:47 1013 29.91 842 24.86 8.5 47.4 63 2 35.6 8.68 0.342
18:48 1013 29.91 842 24.86 8.6 47.6 63 2.1 35.8 8.82 0.347
18:49 1013 29.91 842 24.86 8.7 47.7 62 1.8 35.3 8.91 0.351
18:50 1013 29.91 842 24.86 8.8 47.9 63 2.1 35.8 9.04 0.356
18:51 1013 29.91 842 24.86 8.9 48 63 2.3 36.2 9.08 0.357
18:52 1013 29.91 842 24.86 8.9 48 62 2.1 35.7 9.11 0.359
18:53 1013 29.91 842 24.86 8.9 48.1 63 2.4 36.3 9.16 0.361
18:54 1013 29.91 842 24.86 8.9 48 64 2.5 36.4 9.17 0.361
18:55 1013 29.91 842 24.86 8.9 48 65 2.7 36.8 9.14 0.36
18:56 1013 29.91 842 24.86 8.8 47.8 66 2.9 37.2 9.11 0.359
18:57 1013 29.91 842 24.86 8.6 47.5 68 3 37.5 9.02 0.355
18:58 1013 29.91 842 24.86 8.5 47.2 68 3 37.4 8.84 0.348
18:59 1013 29.91 842 24.86 8.2 46.8 70 3.1 37.6 8.66 0.341
19:00 1013 29.91 842 24.86 8.1 46.5 70 3 37.4 8.46 0.333
19:01 1013 29.91 842 24.86 8 46.3 71 3 37.3 8.35 0.329
19:02 1013 29.91 842 24.86 7.9 46.3 69 2.5 36.5 8.34 0.328
19:03 1013 29.91 842 24.86 8.1 46.5 69 2.7 36.9 8.38 0.33
19:04 1013 29.91 842 24.86 8.1 46.5 69 2.7 36.9 8.39 0.33
19:05 1013 29.91 842 24.86 8.1 46.5 69 2.7 36.9 8.41 0.331
19:06 1013 29.91 842 24.86 8 46.5 70 2.9 37.1 8.42 0.331
19:07 1013 29.91 842 24.86 8 46.4 70 2.9 37.1 8.35 0.329
19:08 1013 29.91 842 24.86 7.9 46.2 71 2.9 37.2 8.3 0.327
19:09 1013 29.91 842 24.86 7.9 46.3 66 1.9 35.5 8.31 0.327
19:10 1013 29.91 842 24.86 8.2 46.8 66 2.4 36.2 8.51 0.335
19:11 1013 29.91 842 24.86 8.3 46.9 67 2.6 36.7 8.62 0.339
19:12 1013 29.91 842 24.86 8.2 46.8 69 3 37.3 8.61 0.339
19:13 1013 29.91 842 24.86 8 46.5 70 2.8 37.1 8.47 0.333
19:14 1013 29.91 842 24.86 7.9 46.3 70 2.9 37.2 8.36 0.329
19:15 1013 29.91 842 24.86 8 46.3 65 1.7 35.1 8.33 0.328
19:16 1013 29.91 842 24.86 8.2 46.8 63 1.7 35 8.53 0.336
19:17 1013 29.91 842 24.86 8.5 47.2 63 1.9 35.5 8.77 0.345
19:18 1013 29.91 842 24.86 8.6 47.4 65 2.4 36.3 8.92 0.351
19:19 1013 29.91 842 24.86 8.5 47.3 65 2.3 36.1 8.88 0.35
19:20 1013 29.91 842 24.86 8.5 47.2 67 2.6 36.8 8.9 0.35
19:21 1013 29.91 842 24.86 8.3 47 69 2.9 37.3 8.79 0.346
19:22 1013 29.91 842 24.86 8.2 46.7 70 3.1 37.6 8.64 0.34
19:23 1013 29.91 842 24.86 8 46.4 70 2.8 37.1 8.49 0.334
19:24 1013 29.91 842 24.86 8 46.3 69 2.6 36.7 8.38 0.33
19:25 1013 29.91 842 24.86 8 46.5 69 2.7 36.9 8.38 0.33
19:26 1013 29.91 842 24.86 8 46.5 68 2.4 36.3 8.42 0.331
19:27 1013 29.91 842 24.86 8.1 46.7 68 2.5 36.5 8.51 0.335
19:28 1013 29.91 842 24.86 8.2 46.8 68 2.7 36.9 8.54 0.336
19:29 1013 29.91 842 24.86 8.2 46.7 69 2.9 37.2 8.58 0.338
19:30 1013 29.91 842 24.86 8.2 46.7 67 2.5 36.5 8.53 0.336
19:31 1013 29.91 842 24.86 8.2 46.8 67 2.6 36.6 8.58 0.338
19:32 1013 29.91 842 24.86 8.3 46.9 67 2.6 36.6 8.65 0.341
19:33 1013 29.91 842 24.86 8.4 47 67 2.6 36.6 8.68 0.342
19:34 1013 29.91 842 24.86 8.4 47.2 67 2.7 36.8 8.77 0.345
19:35 1013 29.91 842 24.86 8.4 47.2 67 2.8 37 8.79 0.346
19:36 1013 29.91 842 24.86 8.4 47 69 3 37.3 8.78 0.346
19:37 1013 29.91 842 24.86 8.3 47 68 2.8 37.1 8.72 0.343
19:38 1013 29.91 842 24.86 8.3 46.9 69 2.9 37.2 8.68 0.342
19:39 1013 29.91 842 24.86 8.3 46.9 69 2.9 37.3 8.65 0.341
19:40 1013 29.91 842 24.86 8.2 46.8 70 3.1 37.5 8.61 0.339
19:41 1013 29.91 842 24.86 8.2 46.7 70 3.1 37.6 8.58 0.338
19:42 1013 29.91 842 24.86 8.1 46.6 71 3.2 37.7 8.51 0.335
19:43 1013 29.91 842 24.86 8 46.4 71 3.1 37.6 8.43 0.332
19:44 1013 29.91 842 24.86 7.9 46.3 72 3.2 37.7 8.37 0.33
19:45 1013 29.91 842 24.86 7.9 46.2 72 3.2 37.8 8.28 0.326
19:46 1013 29.91 842 24.86 7.9 46.1 70 2.8 37.1 8.25 0.325
19:47 1013 29.91 842 24.86 7.9 46.2 71 2.9 37.3 8.24 0.324
19:48 1013 29.91 842 24.86 7.9 46.2 70 2.8 37.1 8.28 0.326
19:49 1013 29.91 842 24.86 8 46.3 70 2.9 37.2 8.3 0.327
19:50 1013 29.91 842 24.86 8 46.4 67 2.2 36 8.39 0.33
19:51 1013 29.91 842 24.86 8.2 46.7 60 0.9 33.6 8.46 0.333
19:52 1013 29.91 842 24.86 8.5 47.3 64 2.1 35.8 8.72 0.343
19:53 1013 29.91 842 24.86 8.7 47.6 66 2.7 36.9 9.01 0.355
19:54 1013 29.91 843 24.89 8.7 47.6 66 2.6 36.8 9.1 0.358
19:55 1013 29.91 842 24.86 8.7 47.6 65 2.4 36.4 9.07 0.357
19:56 1013 29.91 843 24.89 8.7 47.7 67 2.9 37.3 9.03 0.356
19:57 1013 29.91 842 24.86 8.6 47.5 68 3 37.4 9.03 0.356
19:58 1013 29.91 842 24.86 8.5 47.3 66 2.6 36.6 8.95 0.352
19:59 1013 29.91 842 24.86 8.4 47.2 67 2.7 36.8 8.86 0.349
20:00 1013 29.91 843 24.89 8.4 47.1 66 2.5 36.6 8.81 0.347
20:01 1013 29.91 843 24.89 8.4 47.1 66 2.5 36.4 8.82 0.347
20:02 1013 29.91 843 24.89 8.5 47.3 64 2.2 35.9 8.82 0.347
20:03 1013 29.91 843 24.89 8.6 47.5 65 2.5 36.4 8.93 0.352
20:04 1013 29.91 843 24.89 8.6 47.5 65 2.4 36.4 8.97 0.353
20:05 1013 29.91 843 24.89 8.6 47.5 64 2.1 35.9 8.97 0.353
20:06 1013 29.91 843 24.89 8.7 47.6 64 2.2 36 9.04 0.356
20:07 1013 29.91 843 24.89 8.7 47.6 64 2.3 36.1 9.07 0.357
20:08 1013 29.91 843 24.89 8.7 47.7 64 2.3 36.1 9.07 0.357
20:09 1013 29.91 843 24.89 8.7 47.7 64 2.3 36.1 9.13 0.359
20:10 1013 29.91 843 24.89 8.7 47.7 65 2.6 36.6 9.1 0.358
20:11 1013 29.91 843 24.89 8.7 47.6 66 2.6 36.7 9.08 0.357
20:12 1013 29.91 843 24.89 8.6 47.5 66 2.6 36.6 9.01 0.355
20:13 1013 29.91 843 24.89 8.5 47.4 66 2.5 36.5 8.93 0.352
20:14 1013 29.91 843 24.89 8.5 47.3 66 2.5 36.5 8.92 0.351
20:15 1013 29.91 843 24.89 8.5 47.3 66 2.5 36.4 8.87 0.349
20:16 1013 29.91 843 24.89 8.5 47.2 66 2.5 36.5 8.85 0.348
20:17 1013 29.91 843 24.89 8.4 47.2 66 2.5 36.5 8.82 0.347
20:18 1014 29.94 843 24.89 8.4 47.1 66 2.4 36.3 8.78 0.346
20:19 1014 29.94 843 24.89 8.4 47.1 66 2.3 36.2 8.78 0.346
20:20 1014 29.94 843 24.89 8.4 47.2 67 2.7 36.8 8.78 0.346
20:21 1014 29.94 843 24.89 8.4 47.1 66 2.4 36.2 8.74 0.344
20:22 1014 29.94 843 24.89 8.4 47 66 2.4 36.4 8.73 0.344
20:23 1014 29.94 843 24.89 8.3 47 68 2.7 36.9 8.71 0.343
20:24 1014 29.94 843 24.89 8.2 46.7 67 2.5 36.5 8.56 0.337
20:25 1014 29.94 843 24.89 8.2 46.7 66 2.2 35.9 8.52 0.335
20:26 1014 29.94 843 24.89 8.2 46.7 67 2.4 36.4 8.49 0.334
20:27 1013 29.91 843 24.89 8.2 46.7 64 1.8 35.3 8.5 0.335
20:28 1013 29.91 843 24.89 8.3 46.9 61 1.3 34.3 8.6 0.339
20:29 1013 29.91 843 24.89 8.5 47.3 59 0.9 33.7 8.88 0.35
20:30 1013 29.91 843 24.89 8.8 47.8 58 1.1 34 9.11 0.359
20:31 1013 29.91 843 24.89 9 48.2 57 1 33.8 9.28 0.365
20:32 1013 29.91 843 24.89 9.2 48.5 61 2 35.6 9.46 0.372
20:33 1014 29.94 843 24.89 9.2 48.6 63 2.6 36.7 9.35 0.368
20:34 1014 29.94 843 24.89 8.9 48.1 65 2.8 37 9.07 0.357
20:35 1014 29.94 843 24.89 8.7 47.6 66 2.7 36.8 8.89 0.35
20:36 1014 29.94 843 24.89 8.5 47.3 66 2.5 36.6 8.79 0.346
20:37 1014 29.94 843 24.89 8.4 47.1 67 2.6 36.7 8.75 0.344
20:38 1014 29.94 843 24.89 8.3 47 66 2.3 36.1 8.7 0.343
20:39 1014 29.94 843 24.89 8.3 47 65 2.2 36 8.71 0.343
20:40 1014 29.94 843 24.89 8.3 47 65 2.2 36 8.77 0.345
20:41 1014 29.94 843 24.89 8.4 47.1 64 2 35.7 8.79 0.346
20:42 1014 29.94 843 24.89 8.4 47.2 65 2.2 35.9 8.8 0.346
20:43 1014 29.94 843 24.89 8.4 47.1 63 1.9 35.4 8.78 0.346
20:44 1014 29.94 843 24.89 8.5 47.3 67 2.6 36.7 8.84 0.348
20:45 1014 29.94 843 24.89 8.4 47 64 2 35.6 8.77 0.345
20:46 1014 29.94 843 24.89 8.3 47 65 2.1 35.9 8.72 0.343
20:47 1014 29.94 843 24.89 8.4 47 62 1.5 34.7 8.75 0.344
20:48 1014 29.94 843 24.89 8.4 47 60 1.1 34.1 8.74 0.344
20:49 1014 29.94 843 24.89 8.5 47.3 59 1.1 33.9 8.77 0.345
20:50 1014 29.94 843 24.89 8.7 47.6 59 1 33.9 8.91 0.351
20:51 1014 29.94 843 24.89 8.9 48 57 0.9 33.6 9.11 0.359
20:52 1014 29.94 843 24.89 9.1 48.4 57 1 33.8 9.29 0.366
20:53 1014 29.94 843 24.89 9.2 48.6 55 0.6 33.1 9.39 0.37
20:54 1014 29.94 843 24.89 9.3 48.8 60 1.9 35.4 9.54 0.376
20:55 1014 29.94 843 24.89 9.3 48.7 59 1.6 34.9 9.57 0.377
20:56 1014 29.94 843 24.89 9.3 48.7 56 1 33.8 9.52 0.375
20:57 1014 29.94 843 24.89 9.3 48.7 56 1 33.9 9.55 0.376
20:58 1014 29.94 843 24.89 9.3 48.8 57 1.4 34.5 9.58 0.377
20:59 1014 29.94 843 24.89 9.3 48.8 58 1.4 34.6 9.58 0.377
21:00 1014 29.94 843 24.89 9.3 48.7 59 1.7 35.1 9.49 0.374
21:01 1014 29.94 843 24.89 9.2 48.5 63 2.4 36.4 9.46 0.372
21:02 1014 29.94 843 24.89 9 48.2 63 2.3 36.2 9.31 0.367
21:03 1014 29.94 843 24.89 8.8 47.9 64 2.5 36.5 9.12 0.359
21:04 1014 29.94 843 24.89 8.7 47.6 63 2.1 35.8 9.07 0.357
21:05 1014 29.94 843 24.89 8.6 47.6 65 2.5 36.4 9 0.354
21:06 1014 29.94 843 24.89 8.6 47.5 63 2.1 35.8 8.94 0.352
21:07 1014 29.94 843 24.89 8.5 47.3 64 2.1 35.9 8.89 0.35
21:08 1014 29.94 843 24.89 8.4 47.2 63 1.7 35.1 8.85 0.348
21:09 1014 29.94 843 24.89 8.4 47.2 63 1.9 35.4 8.78 0.346
21:10 1014 29.94 843 24.89 8.5 47.2 62 1.5 34.8 8.85 0.348
21:11 1014 29.94 843 24.89 8.5 47.3 63 1.9 35.3 8.86 0.349
21:12 1014 29.94 843 24.89 8.5 47.4 63 1.9 35.4 8.85 0.348
21:13 1014 29.94 843 24.89 8.5 47.3 62 1.7 35 8.84 0.348
21:14 1014 29.94 843 24.89 8.6 47.4 62 1.8 35.2 8.85 0.348
21:15 1014 29.94 843 24.89 8.6 47.4 61 1.6 34.9 8.86 0.349
21:16 1014 29.94 843 24.89 8.7 47.6 59 1.2 34.2 8.98 0.354
21:17 1014 29.94 843 24.89 8.8 47.9 58 1.1 33.9 9.16 0.361
21:18 1014 29.94 843 24.89 9 48.1 58 1.3 34.3 9.31 0.367
21:19 1014 29.94 843 24.89 9 48.2 63 2.4 36.2 9.32 0.367
21:20 1014 29.94 843 24.89 8.8 47.9 61 1.7 35 9.13 0.359
21:21 1014 29.94 843 24.89 8.8 47.8 59 1.2 34.1 9.17 0.361
21:22 1014 29.94 843 24.89 8.9 47.9 57 0.9 33.6 9.29 0.366
21:23 1014 29.94 843 24.89 9 48.1 57 0.8 33.5 9.45 0.372
21:24 1014 29.94 843 24.89 9.1 48.4 57 1.1 33.9 9.56 0.376
21:25 1014 29.94 843 24.89 9.1 48.5 62 2.2 36 9.52 0.375
21:26 1014 29.94 843 24.89 9 48.2 62 2.2 36 9.3 0.366
21:27 1014 29.94 843 24.89 8.9 47.9 64 2.4 36.3 9.15 0.36
21:28 1014 29.94 843 24.89 8.7 47.6 65 2.6 36.7 8.97 0.353
21:29 1014 29.94 843 24.89 8.5 47.4 66 2.5 36.5 8.82 0.347
21:30 1014 29.94 843 24.89 8.4 47.1 67 2.6 36.6 8.69 0.342
21:31 1014 29.94 843 24.89 8.2 46.8 67 2.5 36.4 8.56 0.337
21:32 1014 29.94 843 24.89 8.1 46.6 68 2.6 36.6 8.42 0.331
21:33 1014 29.94 843 24.89 8 46.3 67 2.2 36 8.32 0.328
21:34 1014 29.94 843 24.89 7.9 46.3 66 2.1 35.7 8.31 0.327
21:35 1014 29.94 843 24.89 8 46.3 65 1.8 35.3 8.36 0.329
21:36 1014 29.94 843 24.89 8 46.4 64 1.8 35.2 8.49 0.334
21:37 1014 29.94 843 24.89 8.2 46.7 64 1.9 35.4 8.62 0.339
21:38 1014 29.94 843 24.89 8.3 46.9 63 1.8 35.2 8.76 0.345
21:39 1014 29.94 843 24.89 8.4 47.2 63 1.8 35.2 8.88 0.35
21:40 1014 29.94 843 24.89 8.6 47.4 63 2 35.5 8.98 0.354
21:41 1014 29.94 843 24.89 8.6 47.5 63 2 35.6 9.03 0.356
21:42 1014 29.94 843 24.89 8.6 47.5 64 2.2 36 9 0.354
21:43 1014 29.94 843 24.89 8.6 47.4 64 2.1 35.8 8.88 0.35
21:44 1014 29.94 843 24.89 8.5 47.3 64 2 35.6 8.87 0.349
21:45 1014 29.94 843 24.89 8.5 47.3 64 2.2 35.9 8.89 0.35
21:46 1014 29.94 843 24.89 8.5 47.3 63 1.9 35.4 8.87 0.349
21:47 1014 29.94 843 24.89 8.6 47.4 61 1.6 34.8 9.02 0.355
21:48 1014 29.94 843 24.89 8.7 47.6 61 1.6 34.8 9.12 0.359
21:49 1014 29.94 843 24.89 8.8 47.8 62 1.9 35.4 9.24 0.364
21:50 1014 29.94 843 24.89 8.8 47.9 61 1.7 35 9.23 0.363
21:51 1014 29.94 843 24.89 8.9 48 60 1.6 34.9 9.32 0.367
21:52 1014 29.94 843 24.89 8.9 48.1 60 1.7 35 9.33 0.367
21:53 1014 29.94 843 24.89 8.9 48.1 60 1.7 35 9.34 0.368
21:54 1014 29.94 843 24.89 9 48.1 60 1.7 35 9.33 0.367
21:55 1014 29.94 843 24.89 9 48.1 60 1.7 35 9.34 0.368
21:56 1014 29.94 843 24.89 8.9 48.1 60 1.7 35.1 9.29 0.366
21:57 1014 29.94 843 24.89 8.9 48 61 1.7 35.1 9.31 0.367
21:58 1014 29.94 843 24.89 8.9 48 61 1.9 35.3 9.28 0.365
21:59 1014 29.94 843 24.89 8.9 48 61 1.9 35.4 9.24 0.364
22:00 1014 29.94 843 24.89 8.8 47.9 61 1.8 35.3 9.18 0.361
22:01 1014 29.94 843 24.89 8.8 47.8 62 1.8 35.3 9.15 0.36
22:02 1014 29.94 843 24.89 8.7 47.6 62 1.7 35.1 9.11 0.359
22:03 1014 29.94 843 24.89 8.7 47.6 62 1.8 35.2 9.07 0.357
22:04 1014 29.94 843 24.89 8.6 47.5 62 1.9 35.4 9.06 0.357
22:05 1014 29.94 843 24.89 8.6 47.5 63 2 35.5 9.02 0.355
22:06 1014 29.94 843 24.89 8.5 47.3 66 2.5 36.5 8.93 0.352
22:07 1014 29.94 843 24.89 8.3 47 67 2.6 36.6 8.78 0.346
22:08 1014 29.94 843 24.89 8.1 46.6 66 2.2 36 8.56 0.337
22:09 1014 29.94 843 24.89 8.1 46.5 67 2.3 36.2 8.48 0.334
22:10 1014 29.94 843 24.89 8 46.5 67 2.3 36.2 8.41 0.331
22:11 1014 29.94 843 24.89 8 46.5 65 2 35.6 8.39 0.33
22:12 1014 29.94 843 24.89 8.1 46.5 64 1.8 35.2 8.37 0.33
22:13 1014 29.94 843 24.89 8.1 46.6 64 1.8 35.2 8.46 0.333
22:14 1014 29.94 843 24.89 8.2 46.7 64 1.7 35.1 8.55 0.337
22:15 1014 29.94 843 24.89 8.2 46.8 63 1.7 35.1 8.59 0.338
22:16 1014 29.94 843 24.89 8.3 47 63 1.7 35 8.63 0.34
22:17 1014 29.94 843 24.89 8.4 47.1 62 1.6 34.8 8.72 0.343
22:18 1014 29.94 843 24.89 8.4 47.2 62 1.6 35 8.76 0.345
22:19 1014 29.94 843 24.89 8.5 47.2 67 2.7 36.9 8.85 0.348
22:20 1014 29.94 843 24.89 8.3 46.9 69 2.9 37.2 8.77 0.345
22:21 1014 29.94 843 24.89 8.1 46.5 69 2.8 37.1 8.57 0.337
22:22 1014 29.94 843 24.89 7.9 46.2 70 2.7 36.9 8.38 0.33
22:23 1014 29.94 843 24.89 7.8 46 67 2.2 35.9 8.25 0.325
22:24 1014 29.94 843 24.89 7.8 46 65 1.7 35.1 8.18 0.322
22:25 1014 29.94 843 24.89 7.9 46.3 65 1.7 35.1 8.34 0.328
22:26 1014 29.94 843 24.89 8.1 46.5 65 1.9 35.4 8.59 0.338
22:27 1014 29.94 843 24.89 8.1 46.7 68 2.6 36.6 8.69 0.342
22:28 1014 29.94 843 24.89 8.1 46.5 68 2.5 36.5 8.62 0.339
22:29 1014 29.94 843 24.89 8 46.5 68 2.5 36.5 8.52 0.335
22:30 1014 29.94 843 24.89 8 46.4 68 2.6 36.6 8.51 0.335
22:31 1014 29.94 843 24.89 8 46.4 69 2.6 36.8 8.44 0.332
22:32 1014 29.94 843 24.89 8 46.4 69 2.6 36.7 8.44 0.332
22:33 1014 29.94 843 24.89 8 46.3 68 2.3 36.2 8.38 0.33
22:34 1014 29.94 843 24.89 8 46.4 66 2.2 35.9 8.4 0.331
22:35 1014 29.94 843 24.89 8.1 46.6 65 2 35.6 8.43 0.332
22:36 1014 29.94 843 24.89 8.2 46.7 65 2 35.6 8.51 0.335
22:37 1014 29.94 843 24.89 8.2 46.8 65 2.1 35.7 8.6 0.339
22:38 1014 29.94 843 24.89 8.2 46.8 64 2 35.5 8.62 0.339
22:39 1014 29.94 843 24.89 8.4 47 63 1.6 35 8.69 0.342
22:40 1014 29.94 843 24.89 8.4 47.2 64 1.9 35.5 8.81 0.347
22:41 1014 29.94 843 24.89 8.5 47.3 62 1.6 34.9 8.93 0.352
22:42 1014 29.94 843 24.89 8.6 47.6 64 2.3 36.1 9.09 0.358
22:43 1014 29.94 843 24.89 8.6 47.6 66 2.7 36.9 9.09 0.358
22:44 1014 29.94 843 24.89 8.5 47.4 61 1.5 34.7 8.99 0.354
22:45 1014 29.94 843 24.89 8.6 47.4 61 1.6 34.9 8.97 0.353
22:46 1014 29.94 843 24.89 8.6 47.6 60 1.4 34.5 9.03 0.356
22:47 1014 29.94 843 24.89 8.7 47.7 61 1.6 34.8 9.09 0.358
22:48 1014 29.94 843 24.89 8.7 47.7 62 2 35.5 9.13 0.359
22:49 1014 29.94 843 24.89 8.7 47.6 63 2.1 35.8 9.08 0.357
22:50 1014 29.94 843 24.89 8.6 47.5 62 1.7 35.1 9.05 0.356
22:51 1014 29.94 843 24.89 8.6 47.5 63 2 35.5 9.04 0.356
22:52 1014 29.94 843 24.89 8.6 47.5 63 2.1 35.8 9.01 0.355
22:53 1014 29.94 843 24.89 8.6 47.4 64 2.3 36.1 8.98 0.354
22:54 1014 29.94 843 24.89 8.5 47.3 65 2.4 36.3 8.9 0.35
22:55 1014 29.94 843 24.89 8.4 47.1 65 2.3 36.2 8.81 0.347
22:56 1014 29.94 843 24.89 8.3 47 67 2.5 36.5 8.7 0.343
22:57 1014 29.94 843 24.89 8.2 46.8 65 2 35.6 8.63 0.34
22:58 1014 29.94 843 24.89 8.2 46.8 66 2.2 36 8.64 0.34
22:59 1014 29.94 843 24.89 8.3 46.9 67 2.6 36.7 8.7 0.343
23:00 1014 29.94 843 24.89 8.3 46.9 67 2.5 36.5 8.6 0.339
23:01 1014 29.94 843 24.89 8.2 46.7 67 2.4 36.4 8.54 0.336
23:02 1014 29.94 843 24.89 8.1 46.6 68 2.6 36.7 8.52 0.335
23:03 1014 29.94 843 24.89 8.1 46.6 70 2.9 37.3 8.48 0.334
23:04 1014 29.94 843 24.89 8 46.3 71 3 37.3 8.34 0.328
23:05 1014 29.94 843 24.89 7.9 46.2 72 3.1 37.5 8.23 0.324
23:06 1014 29.94 843 24.89 7.8 46 72 3.1 37.5 8.12 0.32
23:07 1014 29.94 843 24.89 7.7 45.8 73 3.1 37.6 7.99 0.315
23:08 1014 29.94 843 24.89 7.5 45.6 73 3 37.4 7.91 0.311
23:09 1014 29.94 843 24.89 7.4 45.4 74 3.1 37.6 7.82 0.308
23:10 1014 29.94 843 24.89 7.3 45.2 74 3.1 37.5 7.75 0.305
23:11 1014 29.94 843 24.89 7.3 45.2 75 3.1 37.6 7.69 0.303
23:12 1014 29.94 843 24.89 7.2 45 75 3 37.4 7.62 0.3
23:13 1014 29.94 843 24.89 7.2 44.9 74 2.9 37.1 7.63 0.3
23:14 1014 29.94 843 24.89 7.2 44.9 74 2.9 37.1 7.65 0.301
23:15 1014 29.94 843 24.89 7.2 45 74 2.9 37.3 7.65 0.301
23:16 1014 29.94 843 24.89 7.2 45 74 2.9 37.2 7.65 0.301
23:17 1014 29.94 843 24.89 7.2 45 74 3 37.4 7.66 0.302
23:18 1014 29.94 843 24.89 7.2 45 75 3 37.4 7.65 0.301
23:19 1014 29.94 843 24.89 7.2 45 75 3.1 37.6 7.64 0.301
23:20 1014 29.94 843 24.89 7.2 45 76 3.2 37.8 7.6 0.299
23:21 1014 29.94 843 24.89 7.2 44.9 76 3.1 37.7 7.62 0.3
23:22 1014 29.94 843 24.89 7.2 45 74 3 37.3 7.65 0.301
23:23 1014 29.94 843 24.89 7.3 45.1 72 2.5 36.6 7.68 0.302
23:24 1014 29.94 843 24.89 7.4 45.3 73 2.8 37.1 7.84 0.309
23:25 1014 29.94 843 24.89 7.5 45.5 72 2.8 37.1 7.9 0.311
23:26 1014 29.94 843 24.89 7.5 45.5 72 2.8 37.1 7.91 0.311
23:27 1014 29.94 843 24.89 7.5 45.6 71 2.6 36.7 7.94 0.313
23:28 1014 29.94 843 24.89 7.6 45.7 70 2.6 36.6 7.99 0.315
23:29 1014 29.94 843 24.89 7.6 45.8 70 2.5 36.4 8.04 0.317
23:30 1014 29.94 843 24.89 7.7 45.8 71 2.8 37.1 8.09 0.319
23:31 1014 29.94 843 24.89 7.7 45.9 71 2.7 36.9 8.07 0.318
23:32 1014 29.94 843 24.89 7.6 45.8 70 2.6 36.6 8.08 0.318
23:33 1014 29.94 843 24.89 7.7 45.8 71 2.8 37 8.11 0.319
23:34 1014 29.94 843 24.89 7.7 45.9 70 2.5 36.6 8.05 0.317
23:35 1014 29.94 843 24.89 7.7 45.8 70 2.5 36.5 8.1 0.319
23:36 1014 29.94 843 24.89 7.7 45.9 72 2.9 37.3 8.07 0.318
23:37 1014 29.94 843 24.89 7.7 45.8 71 2.7 36.9 8.02 0.316
23:38 1014 29.94 843 24.89 7.7 45.8 72 2.9 37.2 8.02 0.316
23:39 1014 29.94 843 24.89 7.6 45.7 72 2.9 37.3 7.99 0.315
23:40 1014 29.94 843 24.89 7.6 45.7 72 2.9 37.1 7.98 0.314
23:41 1014 29.94 843 24.89 7.6 45.6 73 3 37.3 7.98 0.314
23:42 1014 29.94 843 24.89 7.5 45.5 73 3 37.4 7.95 0.313
23:43 1014 29.94 843 24.89 7.6 45.6 73 3 37.3 7.94 0.313
23:44 1014 29.94 843 24.89 7.6 45.6 73 3 37.4 7.91 0.311
23:45 1014 29.94 843 24.89 7.5 45.5 73 3 37.4 7.94 0.313
23:46 1014 29.94 843 24.89 7.5 45.5 74 3.2 37.7 7.94 0.313
23:47 1014 29.94 843 24.89 7.5 45.5 74 3.2 37.8 7.92 0.312
23:48 1014 29.94 843 24.89 7.5 45.4 75 3.2 37.8 7.9 0.311
23:49 1014 29.94 843 24.89 7.4 45.4 75 3.4 38 7.82 0.308
23:50 1014 29.94 843 24.89 7.4 45.3 76 3.4 38 7.78 0.306
23:51 1014 29.94 843 24.89 7.3 45.2 76 3.3 38 7.74 0.305
23:52 1014 29.94 843 24.89 7.3 45.2 76 3.4 38.1 7.69 0.303
23:53 1014 29.94 843 24.89 7.2 45 77 3.4 38.1 7.67 0.302
23:54 1014 29.94 843 24.89 7.2 45 76 3.3 37.9 7.63 0.3
23:55 1014 29.94 843 24.89 7.2 45 77 3.4 38.2 7.64 0.301
23:56 1014 29.94 843 24.89 7.2 45 77 3.4 38.2 7.59 0.299
23:57 1014 29.94 843 24.89 7.1 44.8 77 3.4 38.2 7.55 0.297
23:58 1014 29.94 843 24.89 7.1 44.8 77 3.4 38.1 7.51 0.296
23:59 1014 29.94 843 24.89 7.1 44.8 77 3.4 38 7.48 0.294
24:00 1014 29.94 843 24.89 7.1 44.8 77 3.4 38.1 7.54 0.297